<?xml version="1.0" encoding="UTF-8"?>
<gpx version="1.1" creator="2bulu-scraper" xmlns="http://www.topografix.com/GPX/1/1">
  <metadata><name>251109尖子山三块石大佛坎环</name><desc>source: 2bulu.com trackId=74406806; exported 2026-09-01T18:03:40.393Z</desc>
    <bounds minlat="29.328758" minlon="105.38197" maxlat="29.363266" maxlon="105.413746"/>
    <link href="https://www.2bulu.com/track/t-gG2nc8AOmKfp%252FR2KBg5Tzw%253D%253D.htm"><text>2bulu 源页面</text></link>
  </metadata>

  <trk><name>251109尖子山三块石大佛坎环</name>
      <trkseg>
        <trkpt lat="29.33114" lon="105.382426"><ele>493.1284</ele><time>2025-11-08T17:50:10.000Z</time></trkpt>
        <trkpt lat="29.331176" lon="105.382522"><ele>498.62265</ele><time>2025-11-08T17:50:14.000Z</time></trkpt>
        <trkpt lat="29.331245" lon="105.382601"><ele>497.51144</ele><time>2025-11-08T17:50:23.000Z</time></trkpt>
        <trkpt lat="29.331287" lon="105.382649"><ele>494.5494</ele><time>2025-11-08T17:51:26.000Z</time></trkpt>
        <trkpt lat="29.331374" lon="105.382683"><ele>490.7971</ele><time>2025-11-08T17:54:04.000Z</time></trkpt>
        <trkpt lat="29.331269" lon="105.382666"><ele>494.0164</ele><time>2025-11-08T17:54:46.000Z</time></trkpt>
        <trkpt lat="29.330911" lon="105.382872"><ele>492.30783</ele><time>2025-11-08T17:55:33.000Z</time></trkpt>
        <trkpt lat="29.330692" lon="105.382845"><ele>487.15512</ele><time>2025-11-08T17:56:29.000Z</time></trkpt>
        <trkpt lat="29.330786" lon="105.382572"><ele>494.96317</ele><time>2025-11-08T17:56:55.000Z</time></trkpt>
        <trkpt lat="29.330874" lon="105.382618"><ele>493.68405</ele><time>2025-11-08T17:57:02.000Z</time></trkpt>
        <trkpt lat="29.331195" lon="105.38278"><ele>498.6113</ele><time>2025-11-08T17:57:15.000Z</time></trkpt>
        <trkpt lat="29.331282" lon="105.382721"><ele>498.5593</ele><time>2025-11-08T17:57:39.000Z</time></trkpt>
        <trkpt lat="29.331481" lon="105.382667"><ele>498.23776</ele><time>2025-11-08T17:58:37.000Z</time></trkpt>
        <trkpt lat="29.331376" lon="105.382719"><ele>497.76706</ele><time>2025-11-08T17:58:49.000Z</time></trkpt>
        <trkpt lat="29.331294" lon="105.382649"><ele>498.0134</ele><time>2025-11-08T17:58:55.000Z</time></trkpt>
        <trkpt lat="29.331237" lon="105.382569"><ele>497.23752</ele><time>2025-11-08T17:59:09.000Z</time></trkpt>
        <trkpt lat="29.331227" lon="105.382671"><ele>497.59653</ele><time>2025-11-08T17:59:36.000Z</time></trkpt>
        <trkpt lat="29.331277" lon="105.382584"><ele>496.6854</ele><time>2025-11-08T17:59:57.000Z</time></trkpt>
        <trkpt lat="29.331321" lon="105.382511"><ele>495.26694</ele><time>2025-11-08T18:01:14.000Z</time></trkpt>
        <trkpt lat="29.331224" lon="105.382536"><ele>497.36142</ele><time>2025-11-08T18:01:31.000Z</time></trkpt>
        <trkpt lat="29.331269" lon="105.382657"><ele>495.90707</ele><time>2025-11-08T18:03:23.000Z</time></trkpt>
        <trkpt lat="29.331296" lon="105.382542"><ele>491.30667</ele><time>2025-11-08T18:03:52.000Z</time></trkpt>
        <trkpt lat="29.331328" lon="105.382678"><ele>489.51657</ele><time>2025-11-08T18:04:31.000Z</time></trkpt>
        <trkpt lat="29.331311" lon="105.382568"><ele>494.65402</ele><time>2025-11-08T18:05:41.000Z</time></trkpt>
        <trkpt lat="29.331272" lon="105.382609"><ele>487.95346</ele><time>2025-11-08T18:05:50.000Z</time></trkpt>
        <trkpt lat="29.331257" lon="105.382823"><ele>491.4537</ele><time>2025-11-08T18:06:05.000Z</time></trkpt>
        <trkpt lat="29.331254" lon="105.382903"><ele>490.93228</ele><time>2025-11-08T18:06:11.000Z</time></trkpt>
        <trkpt lat="29.331309" lon="105.382923"><ele>493.738</ele><time>2025-11-08T18:06:49.000Z</time></trkpt>
        <trkpt lat="29.331361" lon="105.38281"><ele>494.02872</ele><time>2025-11-08T18:07:01.000Z</time></trkpt>
        <trkpt lat="29.331349" lon="105.382797"><ele>486.19418</ele><time>2025-11-08T18:07:07.000Z</time></trkpt>
        <trkpt lat="29.331306" lon="105.3829"><ele>488.25534</ele><time>2025-11-08T18:07:15.000Z</time></trkpt>
        <trkpt lat="29.331235" lon="105.382987"><ele>493.92477</ele><time>2025-11-08T18:07:30.000Z</time></trkpt>
        <trkpt lat="29.331213" lon="105.383069"><ele>489.1592</ele><time>2025-11-08T18:07:38.000Z</time></trkpt>
        <trkpt lat="29.3313" lon="105.383001"><ele>489.5798</ele><time>2025-11-08T18:07:49.000Z</time></trkpt>
        <trkpt lat="29.331255" lon="105.383113"><ele>498.36502</ele><time>2025-11-08T18:08:00.000Z</time></trkpt>
        <trkpt lat="29.331158" lon="105.383143"><ele>485.86917</ele><time>2025-11-08T18:08:11.000Z</time></trkpt>
        <trkpt lat="29.331066" lon="105.38312"><ele>494.119</ele><time>2025-11-08T18:08:28.000Z</time></trkpt>
        <trkpt lat="29.331136" lon="105.383197"><ele>496.44955</ele><time>2025-11-08T18:09:05.000Z</time></trkpt>
        <trkpt lat="29.331106" lon="105.383302"><ele>492.73306</ele><time>2025-11-08T18:09:31.000Z</time></trkpt>
        <trkpt lat="29.331115" lon="105.383416"><ele>490.32742</ele><time>2025-11-08T18:09:50.000Z</time></trkpt>
        <trkpt lat="29.331152" lon="105.383517"><ele>489.97104</ele><time>2025-11-08T18:10:23.000Z</time></trkpt>
        <trkpt lat="29.331141" lon="105.383406"><ele>491.57504</ele><time>2025-11-08T18:10:48.000Z</time></trkpt>
        <trkpt lat="29.331172" lon="105.38351"><ele>494.16556</ele><time>2025-11-08T18:11:09.000Z</time></trkpt>
        <trkpt lat="29.331218" lon="105.383604"><ele>496.03513</ele><time>2025-11-08T18:11:18.000Z</time></trkpt>
        <trkpt lat="29.331277" lon="105.383683"><ele>497.51706</ele><time>2025-11-08T18:11:22.000Z</time></trkpt>
        <trkpt lat="29.331313" lon="105.383577"><ele>502.4459</ele><time>2025-11-08T18:11:33.000Z</time></trkpt>
        <trkpt lat="29.331255" lon="105.383675"><ele>503.15323</ele><time>2025-11-08T18:12:15.000Z</time></trkpt>
        <trkpt lat="29.331179" lon="105.383793"><ele>503.61508</ele><time>2025-11-08T18:12:25.000Z</time></trkpt>
        <trkpt lat="29.331154" lon="105.383603"><ele>504.24362</ele><time>2025-11-08T18:12:51.000Z</time></trkpt>
        <trkpt lat="29.33123" lon="105.383542"><ele>501.9991</ele><time>2025-11-08T18:13:02.000Z</time></trkpt>
        <trkpt lat="29.33132" lon="105.383621"><ele>506.7789</ele><time>2025-11-08T18:13:11.000Z</time></trkpt>
        <trkpt lat="29.331368" lon="105.383712"><ele>508.20944</ele><time>2025-11-08T18:13:18.000Z</time></trkpt>
        <trkpt lat="29.331451" lon="105.383771"><ele>511.00632</ele><time>2025-11-08T18:13:27.000Z</time></trkpt>
        <trkpt lat="29.331504" lon="105.383869"><ele>512.0962</ele><time>2025-11-08T18:13:35.000Z</time></trkpt>
        <trkpt lat="29.3315" lon="105.383981"><ele>512.179</ele><time>2025-11-08T18:13:49.000Z</time></trkpt>
        <trkpt lat="29.33153" lon="105.38408"><ele>511.30234</ele><time>2025-11-08T18:13:52.000Z</time></trkpt>
        <trkpt lat="29.331561" lon="105.384185"><ele>511.36038</ele><time>2025-11-08T18:13:57.000Z</time></trkpt>
        <trkpt lat="29.331612" lon="105.38428"><ele>510.82382</ele><time>2025-11-08T18:14:16.000Z</time></trkpt>
        <trkpt lat="29.331615" lon="105.384167"><ele>511.88577</ele><time>2025-11-08T18:14:24.000Z</time></trkpt>
        <trkpt lat="29.331608" lon="105.384062"><ele>510.49252</ele><time>2025-11-08T18:14:35.000Z</time></trkpt>
        <trkpt lat="29.331561" lon="105.38414"><ele>511.45004</ele><time>2025-11-08T18:14:51.000Z</time></trkpt>
        <trkpt lat="29.331588" lon="105.384242"><ele>512.5239</ele><time>2025-11-08T18:14:57.000Z</time></trkpt>
        <trkpt lat="29.33168" lon="105.384248"><ele>515.24756</ele><time>2025-11-08T18:15:34.000Z</time></trkpt>
        <trkpt lat="29.331827" lon="105.38425"><ele>519.0655</ele><time>2025-11-08T18:15:42.000Z</time></trkpt>
        <trkpt lat="29.331737" lon="105.384276"><ele>520.5738</ele><time>2025-11-08T18:16:02.000Z</time></trkpt>
        <trkpt lat="29.331747" lon="105.384385"><ele>522.5035</ele><time>2025-11-08T18:16:23.000Z</time></trkpt>
        <trkpt lat="29.331752" lon="105.384488"><ele>522.5211</ele><time>2025-11-08T18:16:31.000Z</time></trkpt>
        <trkpt lat="29.331794" lon="105.384389"><ele>525.085</ele><time>2025-11-08T18:16:42.000Z</time></trkpt>
        <trkpt lat="29.331919" lon="105.384435"><ele>526.69214</ele><time>2025-11-08T18:16:56.000Z</time></trkpt>
        <trkpt lat="29.331978" lon="105.384346"><ele>525.8806</ele><time>2025-11-08T18:17:13.000Z</time></trkpt>
        <trkpt lat="29.332064" lon="105.384222"><ele>526.77313</ele><time>2025-11-08T18:17:25.000Z</time></trkpt>
        <trkpt lat="29.332031" lon="105.384332"><ele>530.98444</ele><time>2025-11-08T18:17:31.000Z</time></trkpt>
        <trkpt lat="29.33202" lon="105.384445"><ele>530.3007</ele><time>2025-11-08T18:17:34.000Z</time></trkpt>
        <trkpt lat="29.332274" lon="105.384478"><ele>526.3195</ele><time>2025-11-08T18:17:52.000Z</time></trkpt>
        <trkpt lat="29.33237" lon="105.384473"><ele>536.48224</ele><time>2025-11-08T18:17:55.000Z</time></trkpt>
        <trkpt lat="29.332462" lon="105.384443"><ele>534.77094</ele><time>2025-11-08T18:17:58.000Z</time></trkpt>
        <trkpt lat="29.332556" lon="105.384399"><ele>533.47516</ele><time>2025-11-08T18:18:01.000Z</time></trkpt>
        <trkpt lat="29.332482" lon="105.3844"><ele>538.9083</ele><time>2025-11-08T18:18:29.000Z</time></trkpt>
        <trkpt lat="29.332561" lon="105.384341"><ele>537.2485</ele><time>2025-11-08T18:18:45.000Z</time></trkpt>
        <trkpt lat="29.332639" lon="105.384401"><ele>538.64154</ele><time>2025-11-08T18:19:01.000Z</time></trkpt>
        <trkpt lat="29.332676" lon="105.384422"><ele>531.29926</ele><time>2025-11-08T18:19:14.000Z</time></trkpt>
        <trkpt lat="29.332663" lon="105.384524"><ele>536.9732</ele><time>2025-11-08T18:19:20.000Z</time></trkpt>
        <trkpt lat="29.332723" lon="105.384615"><ele>540.9145</ele><time>2025-11-08T18:19:35.000Z</time></trkpt>
        <trkpt lat="29.332718" lon="105.384719"><ele>545.57684</ele><time>2025-11-08T18:19:43.000Z</time></trkpt>
        <trkpt lat="29.332761" lon="105.38481"><ele>545.01074</ele><time>2025-11-08T18:19:50.000Z</time></trkpt>
        <trkpt lat="29.332795" lon="105.384859"><ele>544.0353</ele><time>2025-11-08T18:19:54.000Z</time></trkpt>
        <trkpt lat="29.332883" lon="105.384946"><ele>542.52155</ele><time>2025-11-08T18:20:13.000Z</time></trkpt>
        <trkpt lat="29.332934" lon="105.384869"><ele>541.1746</ele><time>2025-11-08T18:20:29.000Z</time></trkpt>
        <trkpt lat="29.332878" lon="105.384955"><ele>547.7065</ele><time>2025-11-08T18:20:41.000Z</time></trkpt>
        <trkpt lat="29.332967" lon="105.384991"><ele>545.71857</ele><time>2025-11-08T18:20:56.000Z</time></trkpt>
        <trkpt lat="29.333032" lon="105.385072"><ele>545.50476</ele><time>2025-11-08T18:21:08.000Z</time></trkpt>
        <trkpt lat="29.333127" lon="105.38511"><ele>546.69696</ele><time>2025-11-08T18:21:33.000Z</time></trkpt>
        <trkpt lat="29.333206" lon="105.385172"><ele>544.80725</ele><time>2025-11-08T18:22:09.000Z</time></trkpt>
        <trkpt lat="29.33328" lon="105.385231"><ele>546.2719</ele><time>2025-11-08T18:22:17.000Z</time></trkpt>
        <trkpt lat="29.333345" lon="105.385324"><ele>545.94507</ele><time>2025-11-08T18:22:24.000Z</time></trkpt>
        <trkpt lat="29.333381" lon="105.385432"><ele>546.31805</ele><time>2025-11-08T18:22:31.000Z</time></trkpt>
        <trkpt lat="29.333478" lon="105.385678"><ele>542.92255</ele><time>2025-11-08T18:22:54.000Z</time></trkpt>
        <trkpt lat="29.333539" lon="105.38579"><ele>549.2536</ele><time>2025-11-08T18:23:00.000Z</time></trkpt>
        <trkpt lat="29.333558" lon="105.385677"><ele>551.3749</ele><time>2025-11-08T18:23:20.000Z</time></trkpt>
        <trkpt lat="29.333496" lon="105.385573"><ele>550.5425</ele><time>2025-11-08T18:23:26.000Z</time></trkpt>
        <trkpt lat="29.333543" lon="105.385664"><ele>554.1871</ele><time>2025-11-08T18:23:52.000Z</time></trkpt>
        <trkpt lat="29.333641" lon="105.385644"><ele>552.65546</ele><time>2025-11-08T18:24:35.000Z</time></trkpt>
        <trkpt lat="29.333732" lon="105.385683"><ele>551.18854</ele><time>2025-11-08T18:24:42.000Z</time></trkpt>
        <trkpt lat="29.333823" lon="105.385695"><ele>552.1252</ele><time>2025-11-08T18:24:55.000Z</time></trkpt>
        <trkpt lat="29.333913" lon="105.385709"><ele>552.56415</ele><time>2025-11-08T18:25:09.000Z</time></trkpt>
        <trkpt lat="29.333828" lon="105.385762"><ele>557.3852</ele><time>2025-11-08T18:28:35.000Z</time></trkpt>
        <trkpt lat="29.333913" lon="105.385813"><ele>558.2865</ele><time>2025-11-08T18:28:49.000Z</time></trkpt>
        <trkpt lat="29.334001" lon="105.385781"><ele>556.05133</ele><time>2025-11-08T18:29:00.000Z</time></trkpt>
        <trkpt lat="29.334106" lon="105.385734"><ele>554.62164</ele><time>2025-11-08T18:29:32.000Z</time></trkpt>
        <trkpt lat="29.334193" lon="105.385706"><ele>552.388</ele><time>2025-11-08T18:29:36.000Z</time></trkpt>
        <trkpt lat="29.334268" lon="105.385768"><ele>553.67834</ele><time>2025-11-08T18:29:49.000Z</time></trkpt>
        <trkpt lat="29.334182" lon="105.385805"><ele>555.25616</ele><time>2025-11-08T18:30:05.000Z</time></trkpt>
        <trkpt lat="29.334212" lon="105.385913"><ele>555.386</ele><time>2025-11-08T18:30:18.000Z</time></trkpt>
        <trkpt lat="29.334283" lon="105.385829"><ele>555.3152</ele><time>2025-11-08T18:30:31.000Z</time></trkpt>
        <trkpt lat="29.334262" lon="105.385937"><ele>553.3366</ele><time>2025-11-08T18:30:36.000Z</time></trkpt>
        <trkpt lat="29.334216" lon="105.386174"><ele>552.90436</ele><time>2025-11-08T18:30:37.000Z</time></trkpt>
        <trkpt lat="29.33422" lon="105.386062"><ele>554.3047</ele><time>2025-11-08T18:30:56.000Z</time></trkpt>
        <trkpt lat="29.334273" lon="105.385976"><ele>553.27045</ele><time>2025-11-08T18:31:14.000Z</time></trkpt>
        <trkpt lat="29.334231" lon="105.386295"><ele>551.879</ele><time>2025-11-08T18:31:54.000Z</time></trkpt>
        <trkpt lat="29.334151" lon="105.386353"><ele>558.5872</ele><time>2025-11-08T18:31:58.000Z</time></trkpt>
        <trkpt lat="29.3341" lon="105.386205"><ele>558.9383</ele><time>2025-11-08T18:32:34.000Z</time></trkpt>
        <trkpt lat="29.334139" lon="105.385834"><ele>555.50586</ele><time>2025-11-08T18:32:39.000Z</time></trkpt>
        <trkpt lat="29.334056" lon="105.385891"><ele>555.5339</ele><time>2025-11-08T18:32:47.000Z</time></trkpt>
        <trkpt lat="29.334057" lon="105.385999"><ele>557.6023</ele><time>2025-11-08T18:32:52.000Z</time></trkpt>
        <trkpt lat="29.333988" lon="105.38593"><ele>557.4865</ele><time>2025-11-08T18:33:17.000Z</time></trkpt>
        <trkpt lat="29.333905" lon="105.385971"><ele>557.614</ele><time>2025-11-08T18:33:23.000Z</time></trkpt>
        <trkpt lat="29.333822" lon="105.385929"><ele>560.02234</ele><time>2025-11-08T18:33:32.000Z</time></trkpt>
        <trkpt lat="29.333786" lon="105.385823"><ele>555.874</ele><time>2025-11-08T18:33:50.000Z</time></trkpt>
        <trkpt lat="29.333676" lon="105.385793"><ele>559.7612</ele><time>2025-11-08T18:34:02.000Z</time></trkpt>
        <trkpt lat="29.333583" lon="105.38579"><ele>560.8777</ele><time>2025-11-08T18:34:09.000Z</time></trkpt>
        <trkpt lat="29.333537" lon="105.385699"><ele>561.2682</ele><time>2025-11-08T18:34:34.000Z</time></trkpt>
        <trkpt lat="29.333506" lon="105.385595"><ele>559.9282</ele><time>2025-11-08T18:34:58.000Z</time></trkpt>
        <trkpt lat="29.333444" lon="105.385516"><ele>559.0102</ele><time>2025-11-08T18:35:17.000Z</time></trkpt>
        <trkpt lat="29.333365" lon="105.385445"><ele>559.4594</ele><time>2025-11-08T18:35:31.000Z</time></trkpt>
        <trkpt lat="29.333268" lon="105.385403"><ele>560.57043</ele><time>2025-11-08T18:35:44.000Z</time></trkpt>
        <trkpt lat="29.333185" lon="105.385337"><ele>561.1282</ele><time>2025-11-08T18:35:49.000Z</time></trkpt>
        <trkpt lat="29.333216" lon="105.385493"><ele>564.65045</ele><time>2025-11-08T18:36:14.000Z</time></trkpt>
        <trkpt lat="29.332892" lon="105.385585"><ele>563.26764</ele><time>2025-11-08T18:36:47.000Z</time></trkpt>
        <trkpt lat="29.332863" lon="105.38569"><ele>564.051</ele><time>2025-11-08T18:37:04.000Z</time></trkpt>
        <trkpt lat="29.33294" lon="105.385781"><ele>564.14343</ele><time>2025-11-08T18:37:20.000Z</time></trkpt>
        <trkpt lat="29.332984" lon="105.385879"><ele>565.7598</ele><time>2025-11-08T18:37:27.000Z</time></trkpt>
        <trkpt lat="29.332999" lon="105.385981"><ele>565.5108</ele><time>2025-11-08T18:37:40.000Z</time></trkpt>
        <trkpt lat="29.333078" lon="105.386037"><ele>565.2769</ele><time>2025-11-08T18:37:50.000Z</time></trkpt>
        <trkpt lat="29.333031" lon="105.38616"><ele>567.5037</ele><time>2025-11-08T18:37:56.000Z</time></trkpt>
        <trkpt lat="29.333126" lon="105.38624"><ele>565.00006</ele><time>2025-11-08T18:38:25.000Z</time></trkpt>
        <trkpt lat="29.333154" lon="105.38634"><ele>569.7989</ele><time>2025-11-08T18:39:14.000Z</time></trkpt>
        <trkpt lat="29.333043" lon="105.386406"><ele>567.9854</ele><time>2025-11-08T18:39:27.000Z</time></trkpt>
        <trkpt lat="29.333012" lon="105.386523"><ele>563.85974</ele><time>2025-11-08T18:39:36.000Z</time></trkpt>
        <trkpt lat="29.333133" lon="105.386604"><ele>563.2238</ele><time>2025-11-08T18:39:46.000Z</time></trkpt>
        <trkpt lat="29.333146" lon="105.386709"><ele>566.3941</ele><time>2025-11-08T18:39:52.000Z</time></trkpt>
        <trkpt lat="29.333158" lon="105.386814"><ele>566.47955</ele><time>2025-11-08T18:40:07.000Z</time></trkpt>
        <trkpt lat="29.333219" lon="105.386891"><ele>565.9185</ele><time>2025-11-08T18:40:20.000Z</time></trkpt>
        <trkpt lat="29.33327" lon="105.387007"><ele>565.12775</ele><time>2025-11-08T18:40:28.000Z</time></trkpt>
        <trkpt lat="29.333361" lon="105.387087"><ele>568.21344</ele><time>2025-11-08T18:40:36.000Z</time></trkpt>
        <trkpt lat="29.333413" lon="105.387076"><ele>564.6458</ele><time>2025-11-08T18:40:48.000Z</time></trkpt>
        <trkpt lat="29.333413" lon="105.387184"><ele>568.9815</ele><time>2025-11-08T18:41:02.000Z</time></trkpt>
        <trkpt lat="29.333555" lon="105.387312"><ele>561.5611</ele><time>2025-11-08T18:41:13.000Z</time></trkpt>
        <trkpt lat="29.33363" lon="105.387389"><ele>566.60846</ele><time>2025-11-08T18:41:21.000Z</time></trkpt>
        <trkpt lat="29.333651" lon="105.387497"><ele>566.1136</ele><time>2025-11-08T18:41:26.000Z</time></trkpt>
        <trkpt lat="29.33371" lon="105.387585"><ele>562.07513</ele><time>2025-11-08T18:41:56.000Z</time></trkpt>
        <trkpt lat="29.333798" lon="105.387634"><ele>562.53687</ele><time>2025-11-08T18:42:04.000Z</time></trkpt>
        <trkpt lat="29.333794" lon="105.387737"><ele>562.4633</ele><time>2025-11-08T18:42:13.000Z</time></trkpt>
        <trkpt lat="29.333802" lon="105.387843"><ele>560.5921</ele><time>2025-11-08T18:42:22.000Z</time></trkpt>
        <trkpt lat="29.333798" lon="105.387954"><ele>560.0371</ele><time>2025-11-08T18:42:36.000Z</time></trkpt>
        <trkpt lat="29.333877" lon="105.388096"><ele>558.9624</ele><time>2025-11-08T18:42:43.000Z</time></trkpt>
        <trkpt lat="29.33396" lon="105.388139"><ele>564.11206</ele><time>2025-11-08T18:43:03.000Z</time></trkpt>
        <trkpt lat="29.334042" lon="105.38819"><ele>565.42633</ele><time>2025-11-08T18:43:12.000Z</time></trkpt>
        <trkpt lat="29.334128" lon="105.388222"><ele>567.72296</ele><time>2025-11-08T18:43:21.000Z</time></trkpt>
        <trkpt lat="29.334208" lon="105.388282"><ele>569.3101</ele><time>2025-11-08T18:43:33.000Z</time></trkpt>
        <trkpt lat="29.334222" lon="105.38839"><ele>568.8421</ele><time>2025-11-08T18:43:46.000Z</time></trkpt>
        <trkpt lat="29.334284" lon="105.388481"><ele>569.00104</ele><time>2025-11-08T18:44:00.000Z</time></trkpt>
        <trkpt lat="29.334237" lon="105.388573"><ele>567.6734</ele><time>2025-11-08T18:44:08.000Z</time></trkpt>
        <trkpt lat="29.334225" lon="105.388677"><ele>564.9371</ele><time>2025-11-08T18:44:19.000Z</time></trkpt>
        <trkpt lat="29.334307" lon="105.388726"><ele>564.1731</ele><time>2025-11-08T18:44:31.000Z</time></trkpt>
        <trkpt lat="29.334365" lon="105.388828"><ele>564.7476</ele><time>2025-11-08T18:44:46.000Z</time></trkpt>
        <trkpt lat="29.334439" lon="105.3889"><ele>568.3582</ele><time>2025-11-08T18:44:54.000Z</time></trkpt>
        <trkpt lat="29.334538" lon="105.388907"><ele>567.30475</ele><time>2025-11-08T18:45:11.000Z</time></trkpt>
        <trkpt lat="29.334528" lon="105.389046"><ele>566.785</ele><time>2025-11-08T18:45:22.000Z</time></trkpt>
        <trkpt lat="29.334543" lon="105.389149"><ele>567.6965</ele><time>2025-11-08T18:45:43.000Z</time></trkpt>
        <trkpt lat="29.334549" lon="105.389259"><ele>565.40314</ele><time>2025-11-08T18:45:49.000Z</time></trkpt>
        <trkpt lat="29.334547" lon="105.389374"><ele>562.556</ele><time>2025-11-08T18:46:02.000Z</time></trkpt>
        <trkpt lat="29.334567" lon="105.38948"><ele>560.36707</ele><time>2025-11-08T18:46:09.000Z</time></trkpt>
        <trkpt lat="29.334659" lon="105.38957"><ele>560.2994</ele><time>2025-11-08T18:46:20.000Z</time></trkpt>
        <trkpt lat="29.334723" lon="105.38976"><ele>557.82574</ele><time>2025-11-08T18:46:54.000Z</time></trkpt>
        <trkpt lat="29.334836" lon="105.389794"><ele>562.1778</ele><time>2025-11-08T18:47:00.000Z</time></trkpt>
        <trkpt lat="29.334921" lon="105.389834"><ele>564.25354</ele><time>2025-11-08T18:47:06.000Z</time></trkpt>
        <trkpt lat="29.334974" lon="105.389919"><ele>563.177</ele><time>2025-11-08T18:47:14.000Z</time></trkpt>
        <trkpt lat="29.335059" lon="105.389957"><ele>565.0899</ele><time>2025-11-08T18:47:26.000Z</time></trkpt>
        <trkpt lat="29.335148" lon="105.389908"><ele>562.2387</ele><time>2025-11-08T18:48:05.000Z</time></trkpt>
        <trkpt lat="29.335242" lon="105.389885"><ele>568.3714</ele><time>2025-11-08T18:48:14.000Z</time></trkpt>
        <trkpt lat="29.335316" lon="105.3898"><ele>568.6326</ele><time>2025-11-08T18:48:21.000Z</time></trkpt>
        <trkpt lat="29.335404" lon="105.389731"><ele>567.9185</ele><time>2025-11-08T18:48:26.000Z</time></trkpt>
        <trkpt lat="29.335452" lon="105.389642"><ele>566.74786</ele><time>2025-11-08T18:48:32.000Z</time></trkpt>
        <trkpt lat="29.335518" lon="105.38957"><ele>565.6451</ele><time>2025-11-08T18:48:42.000Z</time></trkpt>
        <trkpt lat="29.335608" lon="105.389551"><ele>566.2043</ele><time>2025-11-08T18:48:51.000Z</time></trkpt>
        <trkpt lat="29.335628" lon="105.389665"><ele>566.2349</ele><time>2025-11-08T18:48:58.000Z</time></trkpt>
        <trkpt lat="29.33555" lon="105.389717"><ele>567.02985</ele><time>2025-11-08T18:49:01.000Z</time></trkpt>
        <trkpt lat="29.335323" lon="105.389767"><ele>568.24396</ele><time>2025-11-08T18:49:12.000Z</time></trkpt>
        <trkpt lat="29.335423" lon="105.389974"><ele>571.4422</ele><time>2025-11-08T18:49:40.000Z</time></trkpt>
        <trkpt lat="29.335491" lon="105.390054"><ele>569.76495</ele><time>2025-11-08T18:49:44.000Z</time></trkpt>
        <trkpt lat="29.335755" lon="105.390086"><ele>567.91974</ele><time>2025-11-08T18:50:01.000Z</time></trkpt>
        <trkpt lat="29.335865" lon="105.390086"><ele>568.06647</ele><time>2025-11-08T18:50:06.000Z</time></trkpt>
        <trkpt lat="29.33597" lon="105.390124"><ele>567.95</ele><time>2025-11-08T18:50:10.000Z</time></trkpt>
        <trkpt lat="29.336069" lon="105.390152"><ele>569.0975</ele><time>2025-11-08T18:50:18.000Z</time></trkpt>
        <trkpt lat="29.336157" lon="105.390219"><ele>571.2718</ele><time>2025-11-08T18:50:28.000Z</time></trkpt>
        <trkpt lat="29.336243" lon="105.39027"><ele>568.6657</ele><time>2025-11-08T18:50:33.000Z</time></trkpt>
        <trkpt lat="29.336399" lon="105.390447"><ele>567.9515</ele><time>2025-11-08T18:50:54.000Z</time></trkpt>
        <trkpt lat="29.336493" lon="105.39039"><ele>566.9837</ele><time>2025-11-08T18:51:01.000Z</time></trkpt>
        <trkpt lat="29.336504" lon="105.390522"><ele>568.8432</ele><time>2025-11-08T18:51:12.000Z</time></trkpt>
        <trkpt lat="29.336701" lon="105.390758"><ele>568.83405</ele><time>2025-11-08T18:51:44.000Z</time></trkpt>
        <trkpt lat="29.336772" lon="105.390866"><ele>567.1829</ele><time>2025-11-08T18:51:49.000Z</time></trkpt>
        <trkpt lat="29.336854" lon="105.390924"><ele>566.72345</ele><time>2025-11-08T18:51:55.000Z</time></trkpt>
        <trkpt lat="29.33694" lon="105.391317"><ele>567.55804</ele><time>2025-11-08T18:52:39.000Z</time></trkpt>
        <trkpt lat="29.336883" lon="105.391503"><ele>567.216</ele><time>2025-11-08T18:53:16.000Z</time></trkpt>
        <trkpt lat="29.336993" lon="105.391509"><ele>567.22906</ele><time>2025-11-08T18:53:31.000Z</time></trkpt>
        <trkpt lat="29.337089" lon="105.391508"><ele>566.0889</ele><time>2025-11-08T18:53:37.000Z</time></trkpt>
        <trkpt lat="29.33732" lon="105.391866"><ele>570.96246</ele><time>2025-11-08T18:54:39.000Z</time></trkpt>
        <trkpt lat="29.337395" lon="105.39194"><ele>573.88556</ele><time>2025-11-08T18:54:49.000Z</time></trkpt>
        <trkpt lat="29.337404" lon="105.392054"><ele>576.81195</ele><time>2025-11-08T18:55:00.000Z</time></trkpt>
        <trkpt lat="29.337421" lon="105.392281"><ele>578.02936</ele><time>2025-11-08T18:55:38.000Z</time></trkpt>
        <trkpt lat="29.33751" lon="105.39241"><ele>570.7752</ele><time>2025-11-08T18:55:47.000Z</time></trkpt>
        <trkpt lat="29.337611" lon="105.392453"><ele>573.2935</ele><time>2025-11-08T18:55:56.000Z</time></trkpt>
        <trkpt lat="29.337698" lon="105.392483"><ele>574.54694</ele><time>2025-11-08T18:56:00.000Z</time></trkpt>
        <trkpt lat="29.337878" lon="105.392446"><ele>573.05414</ele><time>2025-11-08T18:56:31.000Z</time></trkpt>
        <trkpt lat="29.33816" lon="105.39247"><ele>567.9908</ele><time>2025-11-08T18:56:34.000Z</time></trkpt>
        <trkpt lat="29.33825" lon="105.392495"><ele>567.21783</ele><time>2025-11-08T18:56:41.000Z</time></trkpt>
        <trkpt lat="29.338307" lon="105.39258"><ele>565.8399</ele><time>2025-11-08T18:56:48.000Z</time></trkpt>
        <trkpt lat="29.338348" lon="105.392685"><ele>564.0587</ele><time>2025-11-08T18:56:57.000Z</time></trkpt>
        <trkpt lat="29.338366" lon="105.392786"><ele>563.0866</ele><time>2025-11-08T18:57:05.000Z</time></trkpt>
        <trkpt lat="29.338374" lon="105.392901"><ele>563.3544</ele><time>2025-11-08T18:57:13.000Z</time></trkpt>
        <trkpt lat="29.338353" lon="105.393009"><ele>564.03394</ele><time>2025-11-08T18:57:19.000Z</time></trkpt>
        <trkpt lat="29.338334" lon="105.393116"><ele>563.9693</ele><time>2025-11-08T18:57:27.000Z</time></trkpt>
        <trkpt lat="29.338313" lon="105.393223"><ele>565.35333</ele><time>2025-11-08T18:57:34.000Z</time></trkpt>
        <trkpt lat="29.338299" lon="105.393342"><ele>566.0235</ele><time>2025-11-08T18:57:42.000Z</time></trkpt>
        <trkpt lat="29.338281" lon="105.393445"><ele>566.3997</ele><time>2025-11-08T18:57:48.000Z</time></trkpt>
        <trkpt lat="29.338273" lon="105.393549"><ele>567.13336</ele><time>2025-11-08T18:57:57.000Z</time></trkpt>
        <trkpt lat="29.338327" lon="105.393649"><ele>567.87164</ele><time>2025-11-08T18:58:04.000Z</time></trkpt>
        <trkpt lat="29.338341" lon="105.393767"><ele>562.4871</ele><time>2025-11-08T18:58:32.000Z</time></trkpt>
        <trkpt lat="29.338385" lon="105.393778"><ele>561.26855</ele><time>2025-11-08T18:58:55.000Z</time></trkpt>
        <trkpt lat="29.338416" lon="105.393669"><ele>565.1291</ele><time>2025-11-08T18:59:01.000Z</time></trkpt>
        <trkpt lat="29.338424" lon="105.393772"><ele>563.42316</ele><time>2025-11-08T18:59:09.000Z</time></trkpt>
        <trkpt lat="29.338423" lon="105.393881"><ele>565.1324</ele><time>2025-11-08T18:59:18.000Z</time></trkpt>
        <trkpt lat="29.338373" lon="105.393987"><ele>562.8092</ele><time>2025-11-08T18:59:49.000Z</time></trkpt>
        <trkpt lat="29.338342" lon="105.394092"><ele>559.6327</ele><time>2025-11-08T18:59:56.000Z</time></trkpt>
        <trkpt lat="29.338322" lon="105.3942"><ele>557.0874</ele><time>2025-11-08T19:00:02.000Z</time></trkpt>
        <trkpt lat="29.338358" lon="105.394306"><ele>555.42786</ele><time>2025-11-08T19:00:12.000Z</time></trkpt>
        <trkpt lat="29.338438" lon="105.394421"><ele>554.7075</ele><time>2025-11-08T19:00:29.000Z</time></trkpt>
        <trkpt lat="29.338516" lon="105.394473"><ele>554.89246</ele><time>2025-11-08T19:00:41.000Z</time></trkpt>
        <trkpt lat="29.338549" lon="105.394512"><ele>554.6004</ele><time>2025-11-08T19:01:01.000Z</time></trkpt>
        <trkpt lat="29.338593" lon="105.394601"><ele>554.3929</ele><time>2025-11-08T19:01:11.000Z</time></trkpt>
        <trkpt lat="29.338701" lon="105.394619"><ele>553.07745</ele><time>2025-11-08T19:01:22.000Z</time></trkpt>
        <trkpt lat="29.338773" lon="105.394533"><ele>552.6777</ele><time>2025-11-08T19:01:37.000Z</time></trkpt>
        <trkpt lat="29.33877" lon="105.394418"><ele>553.44666</ele><time>2025-11-08T19:01:45.000Z</time></trkpt>
        <trkpt lat="29.338758" lon="105.394309"><ele>553.52295</ele><time>2025-11-08T19:02:00.000Z</time></trkpt>
        <trkpt lat="29.338711" lon="105.394209"><ele>554.76984</ele><time>2025-11-08T19:02:07.000Z</time></trkpt>
        <trkpt lat="29.33879" lon="105.394205"><ele>551.3017</ele><time>2025-11-08T19:02:31.000Z</time></trkpt>
        <trkpt lat="29.338866" lon="105.394279"><ele>549.75604</ele><time>2025-11-08T19:02:53.000Z</time></trkpt>
        <trkpt lat="29.339063" lon="105.394412"><ele>550.25055</ele><time>2025-11-08T19:03:13.000Z</time></trkpt>
        <trkpt lat="29.339019" lon="105.394511"><ele>549.3007</ele><time>2025-11-08T19:03:24.000Z</time></trkpt>
        <trkpt lat="29.338994" lon="105.394634"><ele>550.2552</ele><time>2025-11-08T19:03:28.000Z</time></trkpt>
        <trkpt lat="29.339122" lon="105.394656"><ele>548.71564</ele><time>2025-11-08T19:03:47.000Z</time></trkpt>
        <trkpt lat="29.339268" lon="105.39468"><ele>546.5668</ele><time>2025-11-08T19:03:56.000Z</time></trkpt>
        <trkpt lat="29.339261" lon="105.394785"><ele>547.3011</ele><time>2025-11-08T19:04:07.000Z</time></trkpt>
        <trkpt lat="29.339331" lon="105.394885"><ele>546.45526</ele><time>2025-11-08T19:04:15.000Z</time></trkpt>
        <trkpt lat="29.339426" lon="105.394909"><ele>545.99567</ele><time>2025-11-08T19:04:24.000Z</time></trkpt>
        <trkpt lat="29.339486" lon="105.394501"><ele>542.02356</ele><time>2025-11-08T19:04:41.000Z</time></trkpt>
        <trkpt lat="29.339446" lon="105.394558"><ele>541.89703</ele><time>2025-11-08T19:04:45.000Z</time></trkpt>
        <trkpt lat="29.339435" lon="105.394661"><ele>542.2824</ele><time>2025-11-08T19:04:57.000Z</time></trkpt>
        <trkpt lat="29.339521" lon="105.394629"><ele>542.2927</ele><time>2025-11-08T19:05:22.000Z</time></trkpt>
        <trkpt lat="29.33962" lon="105.394665"><ele>541.2985</ele><time>2025-11-08T19:05:30.000Z</time></trkpt>
        <trkpt lat="29.339733" lon="105.394502"><ele>541.28986</ele><time>2025-11-08T19:06:21.000Z</time></trkpt>
        <trkpt lat="29.33972" lon="105.394841"><ele>541.1796</ele><time>2025-11-08T19:06:55.000Z</time></trkpt>
        <trkpt lat="29.339728" lon="105.394851"><ele>541.8338</ele><time>2025-11-08T19:06:56.000Z</time></trkpt>
        <trkpt lat="29.339777" lon="105.394742"><ele>541.4107</ele><time>2025-11-08T19:07:04.000Z</time></trkpt>
        <trkpt lat="29.339816" lon="105.394845"><ele>536.3654</ele><time>2025-11-08T19:07:35.000Z</time></trkpt>
        <trkpt lat="29.339964" lon="105.395128"><ele>535.04926</ele><time>2025-11-08T19:08:05.000Z</time></trkpt>
        <trkpt lat="29.33997" lon="105.395234"><ele>530.2147</ele><time>2025-11-08T19:08:16.000Z</time></trkpt>
        <trkpt lat="29.339934" lon="105.395257"><ele>534.68036</ele><time>2025-11-08T19:08:18.000Z</time></trkpt>
        <trkpt lat="29.339884" lon="105.395347"><ele>533.4242</ele><time>2025-11-08T19:08:21.000Z</time></trkpt>
        <trkpt lat="29.339727" lon="105.395527"><ele>535.91583</ele><time>2025-11-08T19:08:52.000Z</time></trkpt>
        <trkpt lat="29.339752" lon="105.395406"><ele>535.96246</ele><time>2025-11-08T19:08:59.000Z</time></trkpt>
        <trkpt lat="29.339868" lon="105.395383"><ele>533.01245</ele><time>2025-11-08T19:09:05.000Z</time></trkpt>
        <trkpt lat="29.339963" lon="105.395356"><ele>528.2437</ele><time>2025-11-08T19:09:09.000Z</time></trkpt>
        <trkpt lat="29.340053" lon="105.395369"><ele>524.84216</ele><time>2025-11-08T19:09:16.000Z</time></trkpt>
        <trkpt lat="29.340132" lon="105.395445"><ele>526.35736</ele><time>2025-11-08T19:09:25.000Z</time></trkpt>
        <trkpt lat="29.340242" lon="105.395489"><ele>523.0174</ele><time>2025-11-08T19:09:33.000Z</time></trkpt>
        <trkpt lat="29.340305" lon="105.395574"><ele>519.6586</ele><time>2025-11-08T19:09:43.000Z</time></trkpt>
        <trkpt lat="29.340351" lon="105.395665"><ele>525.2624</ele><time>2025-11-08T19:09:50.000Z</time></trkpt>
        <trkpt lat="29.340443" lon="105.395685"><ele>521.21783</ele><time>2025-11-08T19:09:53.000Z</time></trkpt>
        <trkpt lat="29.340541" lon="105.395702"><ele>523.1052</ele><time>2025-11-08T19:09:58.000Z</time></trkpt>
        <trkpt lat="29.340605" lon="105.395779"><ele>523.3018</ele><time>2025-11-08T19:10:09.000Z</time></trkpt>
        <trkpt lat="29.34071" lon="105.395793"><ele>523.4401</ele><time>2025-11-08T19:10:19.000Z</time></trkpt>
        <trkpt lat="29.340799" lon="105.395828"><ele>523.806</ele><time>2025-11-08T19:10:24.000Z</time></trkpt>
        <trkpt lat="29.341213" lon="105.396276"><ele>516.102</ele><time>2025-11-08T19:11:33.000Z</time></trkpt>
        <trkpt lat="29.341189" lon="105.396394"><ele>516.74774</ele><time>2025-11-08T19:11:44.000Z</time></trkpt>
        <trkpt lat="29.341105" lon="105.396446"><ele>515.3648</ele><time>2025-11-08T19:12:23.000Z</time></trkpt>
        <trkpt lat="29.341105" lon="105.396446"><ele>515.0571</ele><time>2025-11-08T19:12:24.000Z</time></trkpt>
        <trkpt lat="29.341738" lon="105.397025"><ele>516.9726</ele><time>2025-11-08T19:13:45.000Z</time></trkpt>
        <trkpt lat="29.342097" lon="105.397226"><ele>516.45514</ele><time>2025-11-08T19:14:22.000Z</time></trkpt>
        <trkpt lat="29.342143" lon="105.397195"><ele>516.4892</ele><time>2025-11-08T19:14:42.000Z</time></trkpt>
        <trkpt lat="29.342023" lon="105.397316"><ele>517.3172</ele><time>2025-11-08T19:15:10.000Z</time></trkpt>
        <trkpt lat="29.341955" lon="105.397391"><ele>516.5467</ele><time>2025-11-08T19:15:21.000Z</time></trkpt>
        <trkpt lat="29.342043" lon="105.397342"><ele>519.1232</ele><time>2025-11-08T19:15:32.000Z</time></trkpt>
        <trkpt lat="29.342105" lon="105.397312"><ele>517.14386</ele><time>2025-11-08T19:15:36.000Z</time></trkpt>
        <trkpt lat="29.342149" lon="105.39723"><ele>516.9035</ele><time>2025-11-08T19:16:09.000Z</time></trkpt>
        <trkpt lat="29.342271" lon="105.397046"><ele>515.5919</ele><time>2025-11-08T19:16:24.000Z</time></trkpt>
        <trkpt lat="29.342384" lon="105.396857"><ele>515.128</ele><time>2025-11-08T19:16:51.000Z</time></trkpt>
        <trkpt lat="29.342451" lon="105.396846"><ele>512.6565</ele><time>2025-11-08T19:17:02.000Z</time></trkpt>
        <trkpt lat="29.342692" lon="105.396556"><ele>511.59744</ele><time>2025-11-08T19:17:24.000Z</time></trkpt>
        <trkpt lat="29.342793" lon="105.396503"><ele>511.4019</ele><time>2025-11-08T19:18:04.000Z</time></trkpt>
        <trkpt lat="29.342763" lon="105.396442"><ele>512.2513</ele><time>2025-11-08T19:19:20.000Z</time></trkpt>
        <trkpt lat="29.342844" lon="105.396374"><ele>511.68002</ele><time>2025-11-08T19:19:43.000Z</time></trkpt>
        <trkpt lat="29.342909" lon="105.396267"><ele>511.37845</ele><time>2025-11-08T19:20:14.000Z</time></trkpt>
        <trkpt lat="29.342966" lon="105.396228"><ele>512.0002</ele><time>2025-11-08T19:20:23.000Z</time></trkpt>
        <trkpt lat="29.343035" lon="105.396306"><ele>509.84103</ele><time>2025-11-08T19:20:33.000Z</time></trkpt>
        <trkpt lat="29.343118" lon="105.396258"><ele>508.31863</ele><time>2025-11-08T19:20:44.000Z</time></trkpt>
        <trkpt lat="29.343023" lon="105.396268"><ele>508.97043</ele><time>2025-11-08T19:21:08.000Z</time></trkpt>
        <trkpt lat="29.342831" lon="105.396309"><ele>512.21014</ele><time>2025-11-08T19:21:22.000Z</time></trkpt>
        <trkpt lat="29.342904" lon="105.396373"><ele>510.46567</ele><time>2025-11-08T19:21:29.000Z</time></trkpt>
        <trkpt lat="29.343054" lon="105.39641"><ele>506.12253</ele><time>2025-11-08T19:21:37.000Z</time></trkpt>
        <trkpt lat="29.343154" lon="105.396453"><ele>505.9349</ele><time>2025-11-08T19:21:41.000Z</time></trkpt>
        <trkpt lat="29.343375" lon="105.396199"><ele>507.46616</ele><time>2025-11-08T19:22:10.000Z</time></trkpt>
        <trkpt lat="29.34349" lon="105.39603"><ele>505.02127</ele><time>2025-11-08T19:22:31.000Z</time></trkpt>
        <trkpt lat="29.343627" lon="105.395979"><ele>504.77603</ele><time>2025-11-08T19:22:50.000Z</time></trkpt>
        <trkpt lat="29.343804" lon="105.395935"><ele>506.74948</ele><time>2025-11-08T19:23:00.000Z</time></trkpt>
        <trkpt lat="29.344019" lon="105.395631"><ele>506.3591</ele><time>2025-11-08T19:23:33.000Z</time></trkpt>
        <trkpt lat="29.344019" lon="105.395631"><ele>503.3466</ele><time>2025-11-08T19:23:35.000Z</time></trkpt>
        <trkpt lat="29.344401" lon="105.395969"><ele>506.51157</ele><time>2025-11-08T19:25:32.000Z</time></trkpt>
        <trkpt lat="29.344351" lon="105.395871"><ele>508.04697</ele><time>2025-11-08T19:26:06.000Z</time></trkpt>
        <trkpt lat="29.344623" lon="105.395626"><ele>513.6276</ele><time>2025-11-08T19:26:39.000Z</time></trkpt>
        <trkpt lat="29.344634" lon="105.395508"><ele>509.2368</ele><time>2025-11-08T19:26:57.000Z</time></trkpt>
        <trkpt lat="29.34461" lon="105.395404"><ele>507.38522</ele><time>2025-11-08T19:27:03.000Z</time></trkpt>
        <trkpt lat="29.344669" lon="105.395292"><ele>504.38962</ele><time>2025-11-08T19:27:11.000Z</time></trkpt>
        <trkpt lat="29.344743" lon="105.395167"><ele>502.98697</ele><time>2025-11-08T19:27:16.000Z</time></trkpt>
        <trkpt lat="29.34505" lon="105.395048"><ele>513.3307</ele><time>2025-11-08T19:27:40.000Z</time></trkpt>
        <trkpt lat="29.345201" lon="105.394973"><ele>512.33014</ele><time>2025-11-08T19:28:18.000Z</time></trkpt>
        <trkpt lat="29.345517" lon="105.395103"><ele>509.567</ele><time>2025-11-08T19:28:49.000Z</time></trkpt>
        <trkpt lat="29.3455" lon="105.394979"><ele>508.49045</ele><time>2025-11-08T19:29:01.000Z</time></trkpt>
        <trkpt lat="29.345756" lon="105.394762"><ele>504.60422</ele><time>2025-11-08T19:29:18.000Z</time></trkpt>
        <trkpt lat="29.345805" lon="105.394782"><ele>503.7922</ele><time>2025-11-08T19:29:31.000Z</time></trkpt>
        <trkpt lat="29.345971" lon="105.394591"><ele>506.30258</ele><time>2025-11-08T19:29:41.000Z</time></trkpt>
        <trkpt lat="29.345962" lon="105.394453"><ele>497.47867</ele><time>2025-11-08T19:31:00.000Z</time></trkpt>
        <trkpt lat="29.346112" lon="105.394302"><ele>496.47372</ele><time>2025-11-08T19:31:21.000Z</time></trkpt>
        <trkpt lat="29.346329" lon="105.394156"><ele>493.74704</ele><time>2025-11-08T19:31:28.000Z</time></trkpt>
        <trkpt lat="29.346426" lon="105.3941"><ele>493.3143</ele><time>2025-11-08T19:31:34.000Z</time></trkpt>
        <trkpt lat="29.346442" lon="105.394087"><ele>493.01938</ele><time>2025-11-08T19:31:35.000Z</time></trkpt>
        <trkpt lat="29.346537" lon="105.394041"><ele>492.34476</ele><time>2025-11-08T19:31:42.000Z</time></trkpt>
        <trkpt lat="29.346629" lon="105.39404"><ele>491.52475</ele><time>2025-11-08T19:31:57.000Z</time></trkpt>
        <trkpt lat="29.3467" lon="105.393938"><ele>491.02335</ele><time>2025-11-08T19:32:01.000Z</time></trkpt>
        <trkpt lat="29.346786" lon="105.393891"><ele>490.93552</ele><time>2025-11-08T19:32:05.000Z</time></trkpt>
        <trkpt lat="29.346874" lon="105.393853"><ele>491.62643</ele><time>2025-11-08T19:32:14.000Z</time></trkpt>
        <trkpt lat="29.346907" lon="105.393754"><ele>490.80264</ele><time>2025-11-08T19:32:25.000Z</time></trkpt>
        <trkpt lat="29.346991" lon="105.393697"><ele>489.91525</ele><time>2025-11-08T19:32:34.000Z</time></trkpt>
        <trkpt lat="29.347089" lon="105.393675"><ele>490.50034</ele><time>2025-11-08T19:32:46.000Z</time></trkpt>
        <trkpt lat="29.347175" lon="105.393611"><ele>489.55008</ele><time>2025-11-08T19:32:54.000Z</time></trkpt>
        <trkpt lat="29.34736" lon="105.393354"><ele>485.8268</ele><time>2025-11-08T19:33:12.000Z</time></trkpt>
        <trkpt lat="29.347417" lon="105.393271"><ele>484.34262</ele><time>2025-11-08T19:33:21.000Z</time></trkpt>
        <trkpt lat="29.347394" lon="105.393171"><ele>481.2853</ele><time>2025-11-08T19:33:32.000Z</time></trkpt>
        <trkpt lat="29.347543" lon="105.393036"><ele>481.28207</ele><time>2025-11-08T19:33:51.000Z</time></trkpt>
        <trkpt lat="29.34762" lon="105.392965"><ele>481.48557</ele><time>2025-11-08T19:33:59.000Z</time></trkpt>
        <trkpt lat="29.347527" lon="105.393453"><ele>486.5715</ele><time>2025-11-08T19:34:31.000Z</time></trkpt>
        <trkpt lat="29.347682" lon="105.393403"><ele>486.1486</ele><time>2025-11-08T19:34:51.000Z</time></trkpt>
        <trkpt lat="29.347936" lon="105.39322"><ele>483.36606</ele><time>2025-11-08T19:35:06.000Z</time></trkpt>
        <trkpt lat="29.34801" lon="105.393"><ele>480.87558</ele><time>2025-11-08T19:35:24.000Z</time></trkpt>
        <trkpt lat="29.347849" lon="105.393198"><ele>480.9526</ele><time>2025-11-08T19:35:34.000Z</time></trkpt>
        <trkpt lat="29.348583" lon="105.393097"><ele>473.0228</ele><time>2025-11-08T19:37:12.000Z</time></trkpt>
        <trkpt lat="29.348669" lon="105.393142"><ele>471.18607</ele><time>2025-11-08T19:37:18.000Z</time></trkpt>
        <trkpt lat="29.348729" lon="105.393168"><ele>470.6495</ele><time>2025-11-08T19:37:20.000Z</time></trkpt>
        <trkpt lat="29.348792" lon="105.393086"><ele>467.43307</ele><time>2025-11-08T19:37:57.000Z</time></trkpt>
        <trkpt lat="29.348891" lon="105.393124"><ele>466.60312</ele><time>2025-11-08T19:38:12.000Z</time></trkpt>
        <trkpt lat="29.349032" lon="105.392959"><ele>461.44955</ele><time>2025-11-08T19:38:44.000Z</time></trkpt>
        <trkpt lat="29.349138" lon="105.392868"><ele>454.9028</ele><time>2025-11-08T19:39:31.000Z</time></trkpt>
        <trkpt lat="29.349221" lon="105.392806"><ele>456.27762</ele><time>2025-11-08T19:39:37.000Z</time></trkpt>
        <trkpt lat="29.349277" lon="105.392714"><ele>454.60806</ele><time>2025-11-08T19:39:43.000Z</time></trkpt>
        <trkpt lat="29.349323" lon="105.392624"><ele>454.47824</ele><time>2025-11-08T19:39:51.000Z</time></trkpt>
        <trkpt lat="29.349574" lon="105.392471"><ele>447.56754</ele><time>2025-11-08T19:41:18.000Z</time></trkpt>
        <trkpt lat="29.349626" lon="105.392381"><ele>446.63968</ele><time>2025-11-08T19:41:24.000Z</time></trkpt>
        <trkpt lat="29.34967" lon="105.392492"><ele>445.5134</ele><time>2025-11-08T19:41:36.000Z</time></trkpt>
        <trkpt lat="29.349957" lon="105.392611"><ele>443.8331</ele><time>2025-11-08T19:42:09.000Z</time></trkpt>
        <trkpt lat="29.35003" lon="105.392688"><ele>442.59433</ele><time>2025-11-08T19:42:26.000Z</time></trkpt>
        <trkpt lat="29.3502" lon="105.392872"><ele>442.72305</ele><time>2025-11-08T19:42:42.000Z</time></trkpt>
        <trkpt lat="29.350261" lon="105.392963"><ele>442.77664</ele><time>2025-11-08T19:42:53.000Z</time></trkpt>
        <trkpt lat="29.350358" lon="105.39295"><ele>443.4968</ele><time>2025-11-08T19:43:21.000Z</time></trkpt>
        <trkpt lat="29.350445" lon="105.392888"><ele>442.95126</ele><time>2025-11-08T19:43:29.000Z</time></trkpt>
        <trkpt lat="29.350378" lon="105.392959"><ele>442.8939</ele><time>2025-11-08T19:43:43.000Z</time></trkpt>
        <trkpt lat="29.350458" lon="105.392839"><ele>442.40866</ele><time>2025-11-08T19:43:49.000Z</time></trkpt>
        <trkpt lat="29.350501" lon="105.392746"><ele>441.24582</ele><time>2025-11-08T19:44:03.000Z</time></trkpt>
        <trkpt lat="29.350461" lon="105.392635"><ele>440.15268</ele><time>2025-11-08T19:44:21.000Z</time></trkpt>
        <trkpt lat="29.350479" lon="105.39252"><ele>439.2214</ele><time>2025-11-08T19:44:25.000Z</time></trkpt>
        <trkpt lat="29.350516" lon="105.392395"><ele>437.78818</ele><time>2025-11-08T19:44:28.000Z</time></trkpt>
        <trkpt lat="29.350538" lon="105.392291"><ele>436.4412</ele><time>2025-11-08T19:44:33.000Z</time></trkpt>
        <trkpt lat="29.350576" lon="105.392183"><ele>433.691</ele><time>2025-11-08T19:45:06.000Z</time></trkpt>
        <trkpt lat="29.350639" lon="105.39204"><ele>432.33133</ele><time>2025-11-08T19:45:15.000Z</time></trkpt>
        <trkpt lat="29.350639" lon="105.39204"><ele>431.82114</ele><time>2025-11-08T19:45:21.000Z</time></trkpt>
        <trkpt lat="29.350686" lon="105.391948"><ele>430.7026</ele><time>2025-11-08T19:45:30.000Z</time></trkpt>
        <trkpt lat="29.350674" lon="105.392066"><ele>431.4824</ele><time>2025-11-08T19:45:36.000Z</time></trkpt>
        <trkpt lat="29.350721" lon="105.392071"><ele>430.73123</ele><time>2025-11-08T19:45:57.000Z</time></trkpt>
        <trkpt lat="29.350789" lon="105.391999"><ele>430.233</ele><time>2025-11-08T19:46:02.000Z</time></trkpt>
        <trkpt lat="29.350804" lon="105.391967"><ele>429.70816</ele><time>2025-11-08T19:46:06.000Z</time></trkpt>
        <trkpt lat="29.350899" lon="105.391922"><ele>430.45383</ele><time>2025-11-08T19:46:15.000Z</time></trkpt>
        <trkpt lat="29.350955" lon="105.391834"><ele>429.68295</ele><time>2025-11-08T19:46:21.000Z</time></trkpt>
        <trkpt lat="29.350975" lon="105.391727"><ele>428.2806</ele><time>2025-11-08T19:46:29.000Z</time></trkpt>
        <trkpt lat="29.351073" lon="105.391708"><ele>428.40195</ele><time>2025-11-08T19:46:37.000Z</time></trkpt>
        <trkpt lat="29.351093" lon="105.391694"><ele>428.488</ele><time>2025-11-08T19:46:39.000Z</time></trkpt>
        <trkpt lat="29.351185" lon="105.391636"><ele>426.56503</ele><time>2025-11-08T19:46:47.000Z</time></trkpt>
        <trkpt lat="29.351276" lon="105.391634"><ele>427.15475</ele><time>2025-11-08T19:46:53.000Z</time></trkpt>
        <trkpt lat="29.351352" lon="105.391572"><ele>427.75156</ele><time>2025-11-08T19:47:03.000Z</time></trkpt>
        <trkpt lat="29.351387" lon="105.391518"><ele>427.33853</ele><time>2025-11-08T19:47:09.000Z</time></trkpt>
        <trkpt lat="29.35146" lon="105.391443"><ele>425.02817</ele><time>2025-11-08T19:47:20.000Z</time></trkpt>
        <trkpt lat="29.351544" lon="105.391488"><ele>426.06442</ele><time>2025-11-08T19:47:29.000Z</time></trkpt>
        <trkpt lat="29.351546" lon="105.391502"><ele>426.02524</ele><time>2025-11-08T19:47:30.000Z</time></trkpt>
        <trkpt lat="29.351634" lon="105.391548"><ele>426.96762</ele><time>2025-11-08T19:47:43.000Z</time></trkpt>
        <trkpt lat="29.35171" lon="105.391487"><ele>427.26407</ele><time>2025-11-08T19:47:57.000Z</time></trkpt>
        <trkpt lat="29.351743" lon="105.391383"><ele>424.84262</ele><time>2025-11-08T19:48:21.000Z</time></trkpt>
        <trkpt lat="29.351825" lon="105.39141"><ele>425.37595</ele><time>2025-11-08T19:48:27.000Z</time></trkpt>
        <trkpt lat="29.351901" lon="105.391479"><ele>426.07846</ele><time>2025-11-08T19:48:40.000Z</time></trkpt>
        <trkpt lat="29.352009" lon="105.391446"><ele>425.6028</ele><time>2025-11-08T19:48:47.000Z</time></trkpt>
        <trkpt lat="29.352098" lon="105.391399"><ele>424.43564</ele><time>2025-11-08T19:48:52.000Z</time></trkpt>
        <trkpt lat="29.352143" lon="105.391306"><ele>422.0789</ele><time>2025-11-08T19:49:34.000Z</time></trkpt>
        <trkpt lat="29.352188" lon="105.39121"><ele>421.16177</ele><time>2025-11-08T19:49:42.000Z</time></trkpt>
        <trkpt lat="29.352268" lon="105.391159"><ele>419.61002</ele><time>2025-11-08T19:49:50.000Z</time></trkpt>
        <trkpt lat="29.352359" lon="105.39113"><ele>419.09506</ele><time>2025-11-08T19:50:01.000Z</time></trkpt>
        <trkpt lat="29.352455" lon="105.391112"><ele>418.4539</ele><time>2025-11-08T19:50:06.000Z</time></trkpt>
        <trkpt lat="29.352546" lon="105.39115"><ele>416.6937</ele><time>2025-11-08T19:50:11.000Z</time></trkpt>
        <trkpt lat="29.352645" lon="105.391124"><ele>415.12888</ele><time>2025-11-08T19:50:21.000Z</time></trkpt>
        <trkpt lat="29.352707" lon="105.391042"><ele>414.702</ele><time>2025-11-08T19:50:34.000Z</time></trkpt>
        <trkpt lat="29.352667" lon="105.391077"><ele>415.72977</ele><time>2025-11-08T19:50:45.000Z</time></trkpt>
        <trkpt lat="29.352755" lon="105.39104"><ele>413.25876</ele><time>2025-11-08T19:50:57.000Z</time></trkpt>
        <trkpt lat="29.352844" lon="105.391009"><ele>411.79367</ele><time>2025-11-08T19:51:42.000Z</time></trkpt>
        <trkpt lat="29.352928" lon="105.391052"><ele>410.78842</ele><time>2025-11-08T19:51:51.000Z</time></trkpt>
        <trkpt lat="29.353032" lon="105.391038"><ele>411.43674</ele><time>2025-11-08T19:51:58.000Z</time></trkpt>
        <trkpt lat="29.353048" lon="105.391034"><ele>411.3945</ele><time>2025-11-08T19:51:59.000Z</time></trkpt>
        <trkpt lat="29.353158" lon="105.390972"><ele>411.12973</ele><time>2025-11-08T19:52:04.000Z</time></trkpt>
        <trkpt lat="29.353258" lon="105.39092"><ele>411.82126</ele><time>2025-11-08T19:52:08.000Z</time></trkpt>
        <trkpt lat="29.353332" lon="105.390857"><ele>412.03152</ele><time>2025-11-08T19:52:13.000Z</time></trkpt>
        <trkpt lat="29.353388" lon="105.390772"><ele>411.11435</ele><time>2025-11-08T19:52:20.000Z</time></trkpt>
        <trkpt lat="29.353473" lon="105.390705"><ele>410.72177</ele><time>2025-11-08T19:52:26.000Z</time></trkpt>
        <trkpt lat="29.353513" lon="105.39061"><ele>409.91525</ele><time>2025-11-08T19:52:30.000Z</time></trkpt>
        <trkpt lat="29.353554" lon="105.390498"><ele>408.6641</ele><time>2025-11-08T19:52:34.000Z</time></trkpt>
        <trkpt lat="29.35359" lon="105.390394"><ele>407.62924</ele><time>2025-11-08T19:52:53.000Z</time></trkpt>
        <trkpt lat="29.35368" lon="105.390379"><ele>408.08725</ele><time>2025-11-08T19:53:03.000Z</time></trkpt>
        <trkpt lat="29.353766" lon="105.390342"><ele>406.80856</ele><time>2025-11-08T19:53:15.000Z</time></trkpt>
        <trkpt lat="29.353828" lon="105.39026"><ele>406.3571</ele><time>2025-11-08T19:53:23.000Z</time></trkpt>
        <trkpt lat="29.353926" lon="105.390203"><ele>405.1025</ele><time>2025-11-08T19:53:31.000Z</time></trkpt>
        <trkpt lat="29.353952" lon="105.390151"><ele>404.4332</ele><time>2025-11-08T19:53:35.000Z</time></trkpt>
        <trkpt lat="29.353871" lon="105.390204"><ele>404.64328</ele><time>2025-11-08T19:53:53.000Z</time></trkpt>
        <trkpt lat="29.353923" lon="105.390117"><ele>404.81992</ele><time>2025-11-08T19:54:11.000Z</time></trkpt>
        <trkpt lat="29.353856" lon="105.390195"><ele>404.97977</ele><time>2025-11-08T19:54:45.000Z</time></trkpt>
        <trkpt lat="29.353816" lon="105.390296"><ele>407.01303</ele><time>2025-11-08T19:54:53.000Z</time></trkpt>
        <trkpt lat="29.353906" lon="105.390215"><ele>406.72922</ele><time>2025-11-08T19:55:01.000Z</time></trkpt>
        <trkpt lat="29.353972" lon="105.390115"><ele>404.36746</ele><time>2025-11-08T19:55:06.000Z</time></trkpt>
        <trkpt lat="29.35403" lon="105.390034"><ele>402.83353</ele><time>2025-11-08T19:55:11.000Z</time></trkpt>
        <trkpt lat="29.354063" lon="105.390002"><ele>405.4188</ele><time>2025-11-08T19:55:20.000Z</time></trkpt>
        <trkpt lat="29.354053" lon="105.390118"><ele>403.18344</ele><time>2025-11-08T19:55:36.000Z</time></trkpt>
        <trkpt lat="29.354149" lon="105.390059"><ele>403.6118</ele><time>2025-11-08T19:55:42.000Z</time></trkpt>
        <trkpt lat="29.354248" lon="105.390062"><ele>404.92868</ele><time>2025-11-08T19:55:53.000Z</time></trkpt>
        <trkpt lat="29.354332" lon="105.390011"><ele>405.37387</ele><time>2025-11-08T19:56:00.000Z</time></trkpt>
        <trkpt lat="29.354389" lon="105.389927"><ele>406.8707</ele><time>2025-11-08T19:56:10.000Z</time></trkpt>
        <trkpt lat="29.354479" lon="105.389895"><ele>406.56418</ele><time>2025-11-08T19:56:15.000Z</time></trkpt>
        <trkpt lat="29.354555" lon="105.389832"><ele>404.62955</ele><time>2025-11-08T19:56:19.000Z</time></trkpt>
        <trkpt lat="29.354626" lon="105.38973"><ele>404.33664</ele><time>2025-11-08T19:56:24.000Z</time></trkpt>
        <trkpt lat="29.354646" lon="105.389614"><ele>400.55624</ele><time>2025-11-08T19:56:34.000Z</time></trkpt>
        <trkpt lat="29.35456" lon="105.389648"><ele>400.4495</ele><time>2025-11-08T19:56:46.000Z</time></trkpt>
        <trkpt lat="29.354621" lon="105.389572"><ele>399.9448</ele><time>2025-11-08T19:56:54.000Z</time></trkpt>
        <trkpt lat="29.354596" lon="105.389546"><ele>401.56918</ele><time>2025-11-08T19:57:07.000Z</time></trkpt>
        <trkpt lat="29.354716" lon="105.389569"><ele>401.30087</ele><time>2025-11-08T19:57:23.000Z</time></trkpt>
        <trkpt lat="29.354812" lon="105.389578"><ele>403.3242</ele><time>2025-11-08T19:57:27.000Z</time></trkpt>
        <trkpt lat="29.354896" lon="105.389635"><ele>403.43643</ele><time>2025-11-08T19:57:37.000Z</time></trkpt>
        <trkpt lat="29.354945" lon="105.38952"><ele>397.0566</ele><time>2025-11-08T19:57:47.000Z</time></trkpt>
        <trkpt lat="29.354943" lon="105.389396"><ele>401.0422</ele><time>2025-11-08T19:57:53.000Z</time></trkpt>
        <trkpt lat="29.355018" lon="105.389545"><ele>395.40317</ele><time>2025-11-08T19:58:01.000Z</time></trkpt>
        <trkpt lat="29.35503" lon="105.389524"><ele>401.19138</ele><time>2025-11-08T19:58:06.000Z</time></trkpt>
        <trkpt lat="29.355131" lon="105.389574"><ele>399.94223</ele><time>2025-11-08T19:58:15.000Z</time></trkpt>
        <trkpt lat="29.355228" lon="105.389615"><ele>399.06357</ele><time>2025-11-08T19:58:22.000Z</time></trkpt>
        <trkpt lat="29.355317" lon="105.389665"><ele>397.44284</ele><time>2025-11-08T19:58:29.000Z</time></trkpt>
        <trkpt lat="29.35535" lon="105.389691"><ele>403.24527</ele><time>2025-11-08T19:58:33.000Z</time></trkpt>
        <trkpt lat="29.355425" lon="105.389755"><ele>400.2863</ele><time>2025-11-08T19:58:37.000Z</time></trkpt>
        <trkpt lat="29.355509" lon="105.389803"><ele>398.18417</ele><time>2025-11-08T19:59:12.000Z</time></trkpt>
        <trkpt lat="29.355604" lon="105.389818"><ele>396.1622</ele><time>2025-11-08T19:59:17.000Z</time></trkpt>
        <trkpt lat="29.355633" lon="105.389836"><ele>397.1212</ele><time>2025-11-08T19:59:20.000Z</time></trkpt>
        <trkpt lat="29.355727" lon="105.389794"><ele>398.21323</ele><time>2025-11-08T19:59:48.000Z</time></trkpt>
        <trkpt lat="29.35575" lon="105.38967"><ele>396.53622</ele><time>2025-11-08T20:00:00.000Z</time></trkpt>
        <trkpt lat="29.35569" lon="105.389764"><ele>395.54507</ele><time>2025-11-08T20:00:20.000Z</time></trkpt>
        <trkpt lat="29.355594" lon="105.389766"><ele>394.71555</ele><time>2025-11-08T20:00:29.000Z</time></trkpt>
        <trkpt lat="29.355491" lon="105.38955"><ele>391.84293</ele><time>2025-11-08T20:00:37.000Z</time></trkpt>
        <trkpt lat="29.355585" lon="105.389608"><ele>392.37906</ele><time>2025-11-08T20:01:07.000Z</time></trkpt>
        <trkpt lat="29.355565" lon="105.389337"><ele>390.19107</ele><time>2025-11-08T20:01:27.000Z</time></trkpt>
        <trkpt lat="29.355558" lon="105.389233"><ele>387.63913</ele><time>2025-11-08T20:01:35.000Z</time></trkpt>
        <trkpt lat="29.355561" lon="105.389122"><ele>390.1567</ele><time>2025-11-08T20:01:47.000Z</time></trkpt>
        <trkpt lat="29.355581" lon="105.388996"><ele>388.52658</ele><time>2025-11-08T20:01:54.000Z</time></trkpt>
        <trkpt lat="29.355675" lon="105.388922"><ele>387.04318</ele><time>2025-11-08T20:02:02.000Z</time></trkpt>
        <trkpt lat="29.355732" lon="105.388837"><ele>381.65964</ele><time>2025-11-08T20:02:09.000Z</time></trkpt>
        <trkpt lat="29.355831" lon="105.388833"><ele>380.01572</ele><time>2025-11-08T20:02:38.000Z</time></trkpt>
        <trkpt lat="29.355926" lon="105.388797"><ele>378.81747</ele><time>2025-11-08T20:02:49.000Z</time></trkpt>
        <trkpt lat="29.356026" lon="105.388778"><ele>378.4412</ele><time>2025-11-08T20:02:59.000Z</time></trkpt>
        <trkpt lat="29.356115" lon="105.388803"><ele>376.53555</ele><time>2025-11-08T20:03:05.000Z</time></trkpt>
        <trkpt lat="29.356215" lon="105.388817"><ele>374.6188</ele><time>2025-11-08T20:03:12.000Z</time></trkpt>
        <trkpt lat="29.356303" lon="105.388896"><ele>378.3649</ele><time>2025-11-08T20:04:03.000Z</time></trkpt>
        <trkpt lat="29.356392" lon="105.388613"><ele>371.83218</ele><time>2025-11-08T20:04:35.000Z</time></trkpt>
        <trkpt lat="29.356422" lon="105.388571"><ele>373.47318</ele><time>2025-11-08T20:04:41.000Z</time></trkpt>
        <trkpt lat="29.356477" lon="105.38848"><ele>368.6398</ele><time>2025-11-08T20:04:58.000Z</time></trkpt>
        <trkpt lat="29.356669" lon="105.38843"><ele>369.11826</ele><time>2025-11-08T20:05:29.000Z</time></trkpt>
        <trkpt lat="29.356726" lon="105.388419"><ele>365.00644</ele><time>2025-11-08T20:05:52.000Z</time></trkpt>
        <trkpt lat="29.356648" lon="105.388363"><ele>365.3304</ele><time>2025-11-08T20:06:10.000Z</time></trkpt>
        <trkpt lat="29.356743" lon="105.388417"><ele>365.17734</ele><time>2025-11-08T20:06:47.000Z</time></trkpt>
        <trkpt lat="29.356694" lon="105.388375"><ele>365.88974</ele><time>2025-11-08T20:07:06.000Z</time></trkpt>
        <trkpt lat="29.356562" lon="105.388398"><ele>360.15268</ele><time>2025-11-08T20:07:19.000Z</time></trkpt>
        <trkpt lat="29.356848" lon="105.388515"><ele>364.97787</ele><time>2025-11-08T20:07:25.000Z</time></trkpt>
        <trkpt lat="29.356973" lon="105.388652"><ele>365.47543</ele><time>2025-11-08T20:07:41.000Z</time></trkpt>
        <trkpt lat="29.357194" lon="105.388588"><ele>362.4028</ele><time>2025-11-08T20:07:49.000Z</time></trkpt>
        <trkpt lat="29.356891" lon="105.388784"><ele>359.84824</ele><time>2025-11-08T20:08:22.000Z</time></trkpt>
        <trkpt lat="29.357094" lon="105.388973"><ele>365.4343</ele><time>2025-11-08T20:08:32.000Z</time></trkpt>
        <trkpt lat="29.357105" lon="105.388887"><ele>361.26486</ele><time>2025-11-08T20:09:20.000Z</time></trkpt>
        <trkpt lat="29.357417" lon="105.389221"><ele>358.31717</ele><time>2025-11-08T20:09:45.000Z</time></trkpt>
        <trkpt lat="29.357434" lon="105.389111"><ele>358.06992</ele><time>2025-11-08T20:09:53.000Z</time></trkpt>
        <trkpt lat="29.357526" lon="105.389105"><ele>356.82138</ele><time>2025-11-08T20:10:01.000Z</time></trkpt>
        <trkpt lat="29.357603" lon="105.389232"><ele>357.48422</ele><time>2025-11-08T20:10:05.000Z</time></trkpt>
        <trkpt lat="29.357657" lon="105.389323"><ele>358.98605</ele><time>2025-11-08T20:10:07.000Z</time></trkpt>
        <trkpt lat="29.357717" lon="105.389411"><ele>360.30038</ele><time>2025-11-08T20:10:09.000Z</time></trkpt>
        <trkpt lat="29.357807" lon="105.389486"><ele>361.58823</ele><time>2025-11-08T20:10:13.000Z</time></trkpt>
        <trkpt lat="29.357868" lon="105.389518"><ele>359.89853</ele><time>2025-11-08T20:10:32.000Z</time></trkpt>
        <trkpt lat="29.358166" lon="105.389733"><ele>361.22488</ele><time>2025-11-08T20:11:04.000Z</time></trkpt>
        <trkpt lat="29.358252" lon="105.389676"><ele>361.20944</ele><time>2025-11-08T20:11:10.000Z</time></trkpt>
        <trkpt lat="29.35831" lon="105.389584"><ele>358.60544</ele><time>2025-11-08T20:11:18.000Z</time></trkpt>
        <trkpt lat="29.358405" lon="105.389598"><ele>358.67404</ele><time>2025-11-08T20:11:23.000Z</time></trkpt>
        <trkpt lat="29.358734" lon="105.390051"><ele>359.49094</ele><time>2025-11-08T20:12:24.000Z</time></trkpt>
        <trkpt lat="29.358821" lon="105.390013"><ele>355.70743</ele><time>2025-11-08T20:12:31.000Z</time></trkpt>
        <trkpt lat="29.358905" lon="105.390021"><ele>356.46304</ele><time>2025-11-08T20:12:41.000Z</time></trkpt>
        <trkpt lat="29.358975" lon="105.390099"><ele>353.7966</ele><time>2025-11-08T20:12:48.000Z</time></trkpt>
        <trkpt lat="29.359038" lon="105.390186"><ele>354.45547</ele><time>2025-11-08T20:12:52.000Z</time></trkpt>
        <trkpt lat="29.359255" lon="105.3904"><ele>353.4233</ele><time>2025-11-08T20:13:11.000Z</time></trkpt>
        <trkpt lat="29.359407" lon="105.390427"><ele>351.17636</ele><time>2025-11-08T20:13:49.000Z</time></trkpt>
        <trkpt lat="29.359679" lon="105.390658"><ele>347.85617</ele><time>2025-11-08T20:14:42.000Z</time></trkpt>
        <trkpt lat="29.359771" lon="105.390776"><ele>347.61594</ele><time>2025-11-08T20:14:46.000Z</time></trkpt>
        <trkpt lat="29.359619" lon="105.391115"><ele>349.00656</ele><time>2025-11-08T20:15:15.000Z</time></trkpt>
        <trkpt lat="29.359555" lon="105.391371"><ele>349.90695</ele><time>2025-11-08T20:15:51.000Z</time></trkpt>
        <trkpt lat="29.359756" lon="105.391577"><ele>346.80197</ele><time>2025-11-08T20:16:26.000Z</time></trkpt>
        <trkpt lat="29.359816" lon="105.391656"><ele>346.13925</ele><time>2025-11-08T20:17:22.000Z</time></trkpt>
        <trkpt lat="29.359773" lon="105.391564"><ele>346.32358</ele><time>2025-11-08T20:17:34.000Z</time></trkpt>
        <trkpt lat="29.359771" lon="105.39167"><ele>346.1871</ele><time>2025-11-08T20:18:06.000Z</time></trkpt>
        <trkpt lat="29.359716" lon="105.391789"><ele>347.082</ele><time>2025-11-08T20:18:11.000Z</time></trkpt>
        <trkpt lat="29.359553" lon="105.391719"><ele>348.32132</ele><time>2025-11-08T20:18:23.000Z</time></trkpt>
        <trkpt lat="29.359523" lon="105.391791"><ele>347.1605</ele><time>2025-11-08T20:18:30.000Z</time></trkpt>
        <trkpt lat="29.359615" lon="105.391751"><ele>346.03818</ele><time>2025-11-08T20:19:06.000Z</time></trkpt>
        <trkpt lat="29.359597" lon="105.391857"><ele>346.2272</ele><time>2025-11-08T20:19:25.000Z</time></trkpt>
        <trkpt lat="29.359452" lon="105.391867"><ele>346.38693</ele><time>2025-11-08T20:20:18.000Z</time></trkpt>
        <trkpt lat="29.359368" lon="105.391926"><ele>346.03568</ele><time>2025-11-08T20:20:25.000Z</time></trkpt>
        <trkpt lat="29.35941" lon="105.392074"><ele>346.2065</ele><time>2025-11-08T20:22:21.000Z</time></trkpt>
        <trkpt lat="29.359379" lon="105.391963"><ele>346.1105</ele><time>2025-11-08T20:23:35.000Z</time></trkpt>
        <trkpt lat="29.359755" lon="105.391997"><ele>347.38528</ele><time>2025-11-08T20:24:24.000Z</time></trkpt>
        <trkpt lat="29.359653" lon="105.391781"><ele>345.31918</ele><time>2025-11-08T20:24:55.000Z</time></trkpt>
        <trkpt lat="29.359486" lon="105.391924"><ele>346.55545</ele><time>2025-11-08T20:25:22.000Z</time></trkpt>
        <trkpt lat="29.359573" lon="105.391894"><ele>345.8206</ele><time>2025-11-08T20:25:37.000Z</time></trkpt>
        <trkpt lat="29.359683" lon="105.391619"><ele>345.03427</ele><time>2025-11-08T20:27:31.000Z</time></trkpt>
        <trkpt lat="29.359683" lon="105.391448"><ele>345.75482</ele><time>2025-11-08T20:29:02.000Z</time></trkpt>
        <trkpt lat="29.35945" lon="105.391542"><ele>347.91644</ele><time>2025-11-08T20:30:09.000Z</time></trkpt>
        <trkpt lat="29.35745" lon="105.392467"><ele>354.12473</ele><time>2025-11-08T20:41:16.000Z</time></trkpt>
        <trkpt lat="29.357444" lon="105.392519"><ele>354.17264</ele><time>2025-11-08T20:42:34.000Z</time></trkpt>
        <trkpt lat="29.357444" lon="105.392519"><ele>354.14218</ele><time>2025-11-08T20:43:25.000Z</time></trkpt>
        <trkpt lat="29.357557" lon="105.392534"><ele>354.13278</ele><time>2025-11-08T20:48:16.000Z</time></trkpt>
        <trkpt lat="29.35755" lon="105.392431"><ele>353.84464</ele><time>2025-11-08T20:48:27.000Z</time></trkpt>
        <trkpt lat="29.357473" lon="105.392184"><ele>352.6788</ele><time>2025-11-08T20:48:56.000Z</time></trkpt>
        <trkpt lat="29.357524" lon="105.392298"><ele>351.84518</ele><time>2025-11-08T20:49:04.000Z</time></trkpt>
        <trkpt lat="29.357551" lon="105.392456"><ele>352.9149</ele><time>2025-11-08T20:49:28.000Z</time></trkpt>
        <trkpt lat="29.357429" lon="105.392444"><ele>353.43637</ele><time>2025-11-08T20:49:35.000Z</time></trkpt>
        <trkpt lat="29.357422" lon="105.392339"><ele>352.2991</ele><time>2025-11-08T20:49:47.000Z</time></trkpt>
        <trkpt lat="29.35749" lon="105.392514"><ele>354.67905</ele><time>2025-11-08T20:50:04.000Z</time></trkpt>
        <trkpt lat="29.3575" lon="105.392267"><ele>352.97226</ele><time>2025-11-08T20:51:08.000Z</time></trkpt>
        <trkpt lat="29.357564" lon="105.392346"><ele>349.86313</ele><time>2025-11-08T20:51:42.000Z</time></trkpt>
        <trkpt lat="29.357458" lon="105.3924"><ele>350.54703</ele><time>2025-11-08T20:52:06.000Z</time></trkpt>
        <trkpt lat="29.357502" lon="105.392306"><ele>350.26718</ele><time>2025-11-08T20:52:16.000Z</time></trkpt>
        <trkpt lat="29.357608" lon="105.392478"><ele>350.34537</ele><time>2025-11-08T20:52:30.000Z</time></trkpt>
        <trkpt lat="29.357527" lon="105.392345"><ele>351.78134</ele><time>2025-11-08T20:53:02.000Z</time></trkpt>
        <trkpt lat="29.35755" lon="105.392229"><ele>348.90298</ele><time>2025-11-08T20:53:18.000Z</time></trkpt>
        <trkpt lat="29.35757" lon="105.392476"><ele>350.90622</ele><time>2025-11-08T20:54:06.000Z</time></trkpt>
        <trkpt lat="29.357592" lon="105.392596"><ele>352.75137</ele><time>2025-11-08T20:54:16.000Z</time></trkpt>
        <trkpt lat="29.357633" lon="105.392694"><ele>354.74222</ele><time>2025-11-08T20:54:25.000Z</time></trkpt>
        <trkpt lat="29.357828" lon="105.392632"><ele>353.35837</ele><time>2025-11-08T20:54:56.000Z</time></trkpt>
        <trkpt lat="29.357818" lon="105.392738"><ele>353.88632</ele><time>2025-11-08T20:55:03.000Z</time></trkpt>
        <trkpt lat="29.357597" lon="105.392901"><ele>356.10043</ele><time>2025-11-08T20:55:31.000Z</time></trkpt>
        <trkpt lat="29.357555" lon="105.392926"><ele>356.64914</ele><time>2025-11-08T20:55:35.000Z</time></trkpt>
        <trkpt lat="29.357456" lon="105.393042"><ele>355.96957</ele><time>2025-11-08T20:55:55.000Z</time></trkpt>
        <trkpt lat="29.357546" lon="105.393052"><ele>356.07895</ele><time>2025-11-08T20:56:02.000Z</time></trkpt>
        <trkpt lat="29.357858" lon="105.393199"><ele>365.49075</ele><time>2025-11-08T20:56:22.000Z</time></trkpt>
        <trkpt lat="29.357769" lon="105.393309"><ele>366.53513</ele><time>2025-11-08T20:56:38.000Z</time></trkpt>
        <trkpt lat="29.357669" lon="105.393603"><ele>370.48416</ele><time>2025-11-08T20:57:17.000Z</time></trkpt>
        <trkpt lat="29.357329" lon="105.393276"><ele>366.80576</ele><time>2025-11-08T20:57:28.000Z</time></trkpt>
        <trkpt lat="29.357288" lon="105.393249"><ele>362.78122</ele><time>2025-11-08T20:57:30.000Z</time></trkpt>
        <trkpt lat="29.357202" lon="105.39322"><ele>370.6318</ele><time>2025-11-08T20:57:34.000Z</time></trkpt>
        <trkpt lat="29.357018" lon="105.393679"><ele>381.6075</ele><time>2025-11-08T20:59:11.000Z</time></trkpt>
        <trkpt lat="29.356992" lon="105.394019"><ele>380.3956</ele><time>2025-11-08T20:59:31.000Z</time></trkpt>
        <trkpt lat="29.356787" lon="105.394061"><ele>377.32816</ele><time>2025-11-08T20:59:38.000Z</time></trkpt>
        <trkpt lat="29.35668" lon="105.394185"><ele>383.57266</ele><time>2025-11-08T21:00:53.000Z</time></trkpt>
        <trkpt lat="29.356582" lon="105.394189"><ele>384.53818</ele><time>2025-11-08T21:00:57.000Z</time></trkpt>
        <trkpt lat="29.356339" lon="105.394233"><ele>385.26425</ele><time>2025-11-08T21:01:48.000Z</time></trkpt>
        <trkpt lat="29.356127" lon="105.394278"><ele>388.2866</ele><time>2025-11-08T21:02:07.000Z</time></trkpt>
        <trkpt lat="29.35613" lon="105.394391"><ele>384.3928</ele><time>2025-11-08T21:02:18.000Z</time></trkpt>
        <trkpt lat="29.356192" lon="105.394604"><ele>387.6152</ele><time>2025-11-08T21:02:31.000Z</time></trkpt>
        <trkpt lat="29.355999" lon="105.394808"><ele>389.5007</ele><time>2025-11-08T21:02:55.000Z</time></trkpt>
        <trkpt lat="29.35592" lon="105.394947"><ele>387.33707</ele><time>2025-11-08T21:03:19.000Z</time></trkpt>
        <trkpt lat="29.355911" lon="105.395067"><ele>384.29306</ele><time>2025-11-08T21:03:29.000Z</time></trkpt>
        <trkpt lat="29.356064" lon="105.395359"><ele>384.55453</ele><time>2025-11-08T21:03:46.000Z</time></trkpt>
        <trkpt lat="29.356076" lon="105.39538"><ele>382.8347</ele><time>2025-11-08T21:03:47.000Z</time></trkpt>
        <trkpt lat="29.356135" lon="105.395466"><ele>384.24777</ele><time>2025-11-08T21:03:53.000Z</time></trkpt>
        <trkpt lat="29.355998" lon="105.395223"><ele>393.13095</ele><time>2025-11-08T21:04:09.000Z</time></trkpt>
        <trkpt lat="29.355926" lon="105.395159"><ele>391.70883</ele><time>2025-11-08T21:04:16.000Z</time></trkpt>
        <trkpt lat="29.355882" lon="105.395213"><ele>386.9924</ele><time>2025-11-08T21:04:24.000Z</time></trkpt>
        <trkpt lat="29.355953" lon="105.395324"><ele>394.9144</ele><time>2025-11-08T21:04:30.000Z</time></trkpt>
        <trkpt lat="29.355968" lon="105.39546"><ele>397.27548</ele><time>2025-11-08T21:05:02.000Z</time></trkpt>
        <trkpt lat="29.355948" lon="105.395574"><ele>397.64694</ele><time>2025-11-08T21:05:12.000Z</time></trkpt>
        <trkpt lat="29.355906" lon="105.395702"><ele>401.4028</ele><time>2025-11-08T21:05:16.000Z</time></trkpt>
        <trkpt lat="29.355886" lon="105.395831"><ele>401.67136</ele><time>2025-11-08T21:05:20.000Z</time></trkpt>
        <trkpt lat="29.355877" lon="105.395858"><ele>402.0034</ele><time>2025-11-08T21:05:28.000Z</time></trkpt>
        <trkpt lat="29.355928" lon="105.395767"><ele>404.53024</ele><time>2025-11-08T21:05:39.000Z</time></trkpt>
        <trkpt lat="29.355919" lon="105.395896"><ele>402.69296</ele><time>2025-11-08T21:05:48.000Z</time></trkpt>
        <trkpt lat="29.35586" lon="105.395978"><ele>404.94528</ele><time>2025-11-08T21:05:53.000Z</time></trkpt>
        <trkpt lat="29.355858" lon="105.396061"><ele>400.1962</ele><time>2025-11-08T21:05:57.000Z</time></trkpt>
        <trkpt lat="29.355867" lon="105.396117"><ele>402.19125</ele><time>2025-11-08T21:05:59.000Z</time></trkpt>
        <trkpt lat="29.35584" lon="105.39622"><ele>408.00888</ele><time>2025-11-08T21:06:06.000Z</time></trkpt>
        <trkpt lat="29.355827" lon="105.396324"><ele>410.00668</ele><time>2025-11-08T21:06:27.000Z</time></trkpt>
        <trkpt lat="29.355759" lon="105.396395"><ele>413.9078</ele><time>2025-11-08T21:06:36.000Z</time></trkpt>
        <trkpt lat="29.35579" lon="105.396494"><ele>404.1389</ele><time>2025-11-08T21:07:03.000Z</time></trkpt>
        <trkpt lat="29.355796" lon="105.396598"><ele>408.48233</ele><time>2025-11-08T21:07:18.000Z</time></trkpt>
        <trkpt lat="29.35574" lon="105.39668"><ele>407.32193</ele><time>2025-11-08T21:07:25.000Z</time></trkpt>
        <trkpt lat="29.355654" lon="105.396724"><ele>410.46243</ele><time>2025-11-08T21:07:30.000Z</time></trkpt>
        <trkpt lat="29.355661" lon="105.396714"><ele>411.20694</ele><time>2025-11-08T21:07:33.000Z</time></trkpt>
        <trkpt lat="29.355742" lon="105.39677"><ele>409.95096</ele><time>2025-11-08T21:07:57.000Z</time></trkpt>
        <trkpt lat="29.35584" lon="105.39707"><ele>412.30136</ele><time>2025-11-08T21:08:07.000Z</time></trkpt>
        <trkpt lat="29.355525" lon="105.397056"><ele>410.68698</ele><time>2025-11-08T21:09:06.000Z</time></trkpt>
        <trkpt lat="29.355637" lon="105.39706"><ele>421.14346</ele><time>2025-11-08T21:09:51.000Z</time></trkpt>
        <trkpt lat="29.355723" lon="105.397094"><ele>417.09518</ele><time>2025-11-08T21:10:01.000Z</time></trkpt>
        <trkpt lat="29.355684" lon="105.397116"><ele>415.12393</ele><time>2025-11-08T21:10:05.000Z</time></trkpt>
        <trkpt lat="29.355605" lon="105.397138"><ele>415.19748</ele><time>2025-11-08T21:10:09.000Z</time></trkpt>
        <trkpt lat="29.355514" lon="105.397128"><ele>419.18582</ele><time>2025-11-08T21:10:12.000Z</time></trkpt>
        <trkpt lat="29.355328" lon="105.397164"><ele>415.62692</ele><time>2025-11-08T21:10:46.000Z</time></trkpt>
        <trkpt lat="29.355227" lon="105.397202"><ele>424.97348</ele><time>2025-11-08T21:10:50.000Z</time></trkpt>
        <trkpt lat="29.354937" lon="105.397178"><ele>427.00174</ele><time>2025-11-08T21:10:51.000Z</time></trkpt>
        <trkpt lat="29.355153" lon="105.397211"><ele>430.88327</ele><time>2025-11-08T21:11:35.000Z</time></trkpt>
        <trkpt lat="29.355209" lon="105.397293"><ele>433.03384</ele><time>2025-11-08T21:11:42.000Z</time></trkpt>
        <trkpt lat="29.355254" lon="105.397387"><ele>426.60727</ele><time>2025-11-08T21:11:47.000Z</time></trkpt>
        <trkpt lat="29.355288" lon="105.397502"><ele>425.58676</ele><time>2025-11-08T21:11:55.000Z</time></trkpt>
        <trkpt lat="29.35535" lon="105.397586"><ele>415.94632</ele><time>2025-11-08T21:12:02.000Z</time></trkpt>
        <trkpt lat="29.355317" lon="105.397872"><ele>425.43942</ele><time>2025-11-08T21:12:23.000Z</time></trkpt>
        <trkpt lat="29.355333" lon="105.398093"><ele>423.11667</ele><time>2025-11-08T21:12:35.000Z</time></trkpt>
        <trkpt lat="29.355457" lon="105.398242"><ele>426.33994</ele><time>2025-11-08T21:12:55.000Z</time></trkpt>
        <trkpt lat="29.355448" lon="105.398341"><ele>427.13504</ele><time>2025-11-08T21:13:06.000Z</time></trkpt>
        <trkpt lat="29.355458" lon="105.398442"><ele>424.53256</ele><time>2025-11-08T21:13:38.000Z</time></trkpt>
        <trkpt lat="29.355532" lon="105.398534"><ele>424.90115</ele><time>2025-11-08T21:13:46.000Z</time></trkpt>
        <trkpt lat="29.355626" lon="105.398712"><ele>422.38522</ele><time>2025-11-08T21:14:08.000Z</time></trkpt>
        <trkpt lat="29.355713" lon="105.399066"><ele>422.38315</ele><time>2025-11-08T21:14:29.000Z</time></trkpt>
        <trkpt lat="29.3557" lon="105.399191"><ele>425.44254</ele><time>2025-11-08T21:14:39.000Z</time></trkpt>
        <trkpt lat="29.355687" lon="105.399082"><ele>422.04428</ele><time>2025-11-08T21:14:58.000Z</time></trkpt>
        <trkpt lat="29.355696" lon="105.399186"><ele>423.01212</ele><time>2025-11-08T21:15:09.000Z</time></trkpt>
        <trkpt lat="29.355754" lon="105.399269"><ele>425.46066</ele><time>2025-11-08T21:15:55.000Z</time></trkpt>
        <trkpt lat="29.355827" lon="105.399351"><ele>426.02127</ele><time>2025-11-08T21:16:00.000Z</time></trkpt>
        <trkpt lat="29.355899" lon="105.399439"><ele>425.44968</ele><time>2025-11-08T21:16:03.000Z</time></trkpt>
        <trkpt lat="29.355975" lon="105.399564"><ele>426.34933</ele><time>2025-11-08T21:16:06.000Z</time></trkpt>
        <trkpt lat="29.356065" lon="105.39964"><ele>426.49667</ele><time>2025-11-08T21:16:13.000Z</time></trkpt>
        <trkpt lat="29.356117" lon="105.399724"><ele>424.79617</ele><time>2025-11-08T21:16:17.000Z</time></trkpt>
        <trkpt lat="29.356053" lon="105.399828"><ele>424.22104</ele><time>2025-11-08T21:16:33.000Z</time></trkpt>
        <trkpt lat="29.356026" lon="105.399932"><ele>423.00717</ele><time>2025-11-08T21:16:37.000Z</time></trkpt>
        <trkpt lat="29.356036" lon="105.399937"><ele>417.98325</ele><time>2025-11-08T21:16:42.000Z</time></trkpt>
        <trkpt lat="29.356112" lon="105.399995"><ele>422.54172</ele><time>2025-11-08T21:16:55.000Z</time></trkpt>
        <trkpt lat="29.356148" lon="105.400093"><ele>422.3242</ele><time>2025-11-08T21:17:07.000Z</time></trkpt>
        <trkpt lat="29.356175" lon="105.400205"><ele>422.629</ele><time>2025-11-08T21:17:14.000Z</time></trkpt>
        <trkpt lat="29.356172" lon="105.400186"><ele>419.0187</ele><time>2025-11-08T21:17:19.000Z</time></trkpt>
        <trkpt lat="29.356234" lon="105.400276"><ele>418.3983</ele><time>2025-11-08T21:17:42.000Z</time></trkpt>
        <trkpt lat="29.356277" lon="105.400368"><ele>419.9908</ele><time>2025-11-08T21:17:50.000Z</time></trkpt>
        <trkpt lat="29.356338" lon="105.40045"><ele>419.89108</ele><time>2025-11-08T21:17:56.000Z</time></trkpt>
        <trkpt lat="29.356391" lon="105.400565"><ele>418.73593</ele><time>2025-11-08T21:18:01.000Z</time></trkpt>
        <trkpt lat="29.356381" lon="105.400681"><ele>418.12167</ele><time>2025-11-08T21:18:06.000Z</time></trkpt>
        <trkpt lat="29.356328" lon="105.400786"><ele>423.30258</ele><time>2025-11-08T21:18:11.000Z</time></trkpt>
        <trkpt lat="29.356306" lon="105.400889"><ele>424.70615</ele><time>2025-11-08T21:18:18.000Z</time></trkpt>
        <trkpt lat="29.356394" lon="105.400927"><ele>421.24277</ele><time>2025-11-08T21:18:45.000Z</time></trkpt>
        <trkpt lat="29.356411" lon="105.400946"><ele>420.5344</ele><time>2025-11-08T21:18:47.000Z</time></trkpt>
        <trkpt lat="29.356464" lon="105.40103"><ele>424.3174</ele><time>2025-11-08T21:18:52.000Z</time></trkpt>
        <trkpt lat="29.356561" lon="105.401062"><ele>423.75034</ele><time>2025-11-08T21:19:00.000Z</time></trkpt>
        <trkpt lat="29.35661" lon="105.401151"><ele>419.1312</ele><time>2025-11-08T21:19:19.000Z</time></trkpt>
        <trkpt lat="29.356574" lon="105.401175"><ele>419.18893</ele><time>2025-11-08T21:19:21.000Z</time></trkpt>
        <trkpt lat="29.356576" lon="105.401279"><ele>419.21964</ele><time>2025-11-08T21:19:34.000Z</time></trkpt>
        <trkpt lat="29.356503" lon="105.401377"><ele>423.1262</ele><time>2025-11-08T21:20:02.000Z</time></trkpt>
        <trkpt lat="29.356483" lon="105.401312"><ele>424.31027</ele><time>2025-11-08T21:20:09.000Z</time></trkpt>
        <trkpt lat="29.356504" lon="105.40142"><ele>429.1542</ele><time>2025-11-08T21:20:20.000Z</time></trkpt>
        <trkpt lat="29.356594" lon="105.401349"><ele>414.8215</ele><time>2025-11-08T21:20:49.000Z</time></trkpt>
        <trkpt lat="29.35663" lon="105.401367"><ele>417.0012</ele><time>2025-11-08T21:20:59.000Z</time></trkpt>
        <trkpt lat="29.356754" lon="105.401353"><ele>419.72275</ele><time>2025-11-08T21:21:27.000Z</time></trkpt>
        <trkpt lat="29.356694" lon="105.401399"><ele>417.0762</ele><time>2025-11-08T21:21:33.000Z</time></trkpt>
        <trkpt lat="29.356714" lon="105.40142"><ele>416.4951</ele><time>2025-11-08T21:21:34.000Z</time></trkpt>
        <trkpt lat="29.356652" lon="105.401544"><ele>414.24344</ele><time>2025-11-08T21:21:39.000Z</time></trkpt>
        <trkpt lat="29.356573" lon="105.401639"><ele>413.7974</ele><time>2025-11-08T21:21:42.000Z</time></trkpt>
        <trkpt lat="29.356529" lon="105.401737"><ele>430.67294</ele><time>2025-11-08T21:21:46.000Z</time></trkpt>
        <trkpt lat="29.356511" lon="105.401781"><ele>429.64157</ele><time>2025-11-08T21:21:48.000Z</time></trkpt>
        <trkpt lat="29.356396" lon="105.40161"><ele>432.7861</ele><time>2025-11-08T21:21:53.000Z</time></trkpt>
        <trkpt lat="29.356433" lon="105.401711"><ele>433.89474</ele><time>2025-11-08T21:21:55.000Z</time></trkpt>
        <trkpt lat="29.35637" lon="105.401788"><ele>437.0648</ele><time>2025-11-08T21:22:10.000Z</time></trkpt>
        <trkpt lat="29.356325" lon="105.401878"><ele>438.2949</ele><time>2025-11-08T21:22:14.000Z</time></trkpt>
        <trkpt lat="29.356413" lon="105.40194"><ele>439.34726</ele><time>2025-11-08T21:22:41.000Z</time></trkpt>
        <trkpt lat="29.356498" lon="105.401901"><ele>438.1346</ele><time>2025-11-08T21:22:51.000Z</time></trkpt>
        <trkpt lat="29.356584" lon="105.401943"><ele>434.5483</ele><time>2025-11-08T21:23:07.000Z</time></trkpt>
        <trkpt lat="29.356641" lon="105.402048"><ele>433.6639</ele><time>2025-11-08T21:23:51.000Z</time></trkpt>
        <trkpt lat="29.35687" lon="105.402454"><ele>429.75296</ele><time>2025-11-08T21:23:59.000Z</time></trkpt>
        <trkpt lat="29.356797" lon="105.40218"><ele>424.00717</ele><time>2025-11-08T21:24:26.000Z</time></trkpt>
        <trkpt lat="29.356773" lon="105.402541"><ele>428.1163</ele><time>2025-11-08T21:24:31.000Z</time></trkpt>
        <trkpt lat="29.356705" lon="105.402826"><ele>421.08237</ele><time>2025-11-08T21:24:54.000Z</time></trkpt>
        <trkpt lat="29.356572" lon="105.402692"><ele>429.05844</ele><time>2025-11-08T21:25:12.000Z</time></trkpt>
        <trkpt lat="29.356563" lon="105.402662"><ele>428.37363</ele><time>2025-11-08T21:25:20.000Z</time></trkpt>
        <trkpt lat="29.356608" lon="105.402759"><ele>427.83298</ele><time>2025-11-08T21:25:43.000Z</time></trkpt>
        <trkpt lat="29.356567" lon="105.402874"><ele>426.5508</ele><time>2025-11-08T21:26:09.000Z</time></trkpt>
        <trkpt lat="29.356393" lon="105.40286"><ele>426.31113</ele><time>2025-11-08T21:26:31.000Z</time></trkpt>
        <trkpt lat="29.35591" lon="105.403672"><ele>434.5651</ele><time>2025-11-08T21:37:47.000Z</time></trkpt>
        <trkpt lat="29.355869" lon="105.403772"><ele>433.4902</ele><time>2025-11-08T21:38:17.000Z</time></trkpt>
        <trkpt lat="29.355925" lon="105.403858"><ele>432.31732</ele><time>2025-11-08T21:38:35.000Z</time></trkpt>
        <trkpt lat="29.355928" lon="105.403873"><ele>431.94858</ele><time>2025-11-08T21:39:13.000Z</time></trkpt>
        <trkpt lat="29.355928" lon="105.403873"><ele>431.95358</ele><time>2025-11-08T21:39:15.000Z</time></trkpt>
        <trkpt lat="29.35592" lon="105.403742"><ele>433.13602</ele><time>2025-11-08T21:39:23.000Z</time></trkpt>
        <trkpt lat="29.355877" lon="105.403641"><ele>433.4106</ele><time>2025-11-08T21:39:29.000Z</time></trkpt>
        <trkpt lat="29.355792" lon="105.403553"><ele>436.53146</ele><time>2025-11-08T21:40:12.000Z</time></trkpt>
        <trkpt lat="29.355849" lon="105.403725"><ele>432.55832</ele><time>2025-11-08T21:40:32.000Z</time></trkpt>
        <trkpt lat="29.355863" lon="105.40376"><ele>430.83853</ele><time>2025-11-08T21:40:36.000Z</time></trkpt>
        <trkpt lat="29.355824" lon="105.403658"><ele>429.14847</ele><time>2025-11-08T21:40:55.000Z</time></trkpt>
        <trkpt lat="29.355738" lon="105.403619"><ele>430.12985</ele><time>2025-11-08T21:41:05.000Z</time></trkpt>
        <trkpt lat="29.355669" lon="105.403759"><ele>434.7477</ele><time>2025-11-08T21:45:58.000Z</time></trkpt>
        <trkpt lat="29.355742" lon="105.403683"><ele>434.0192</ele><time>2025-11-08T21:46:12.000Z</time></trkpt>
        <trkpt lat="29.355811" lon="105.403728"><ele>432.99936</ele><time>2025-11-08T21:46:17.000Z</time></trkpt>
        <trkpt lat="29.356093" lon="105.403806"><ele>433.3115</ele><time>2025-11-08T21:46:26.000Z</time></trkpt>
        <trkpt lat="29.35619" lon="105.403856"><ele>432.59055</ele><time>2025-11-08T21:46:29.000Z</time></trkpt>
        <trkpt lat="29.356115" lon="105.404035"><ele>435.67953</ele><time>2025-11-08T21:47:35.000Z</time></trkpt>
        <trkpt lat="29.356014" lon="105.404023"><ele>433.23172</ele><time>2025-11-08T21:47:39.000Z</time></trkpt>
        <trkpt lat="29.355992" lon="105.40402"><ele>432.8796</ele><time>2025-11-08T21:47:40.000Z</time></trkpt>
        <trkpt lat="29.356276" lon="105.404033"><ele>439.44333</ele><time>2025-11-08T21:48:00.000Z</time></trkpt>
        <trkpt lat="29.35653" lon="105.403959"><ele>447.47763</ele><time>2025-11-08T21:48:33.000Z</time></trkpt>
        <trkpt lat="29.356712" lon="105.403811"><ele>441.99826</ele><time>2025-11-08T21:48:49.000Z</time></trkpt>
        <trkpt lat="29.356774" lon="105.403735"><ele>442.81882</ele><time>2025-11-08T21:49:12.000Z</time></trkpt>
        <trkpt lat="29.356677" lon="105.403701"><ele>441.54916</ele><time>2025-11-08T21:49:22.000Z</time></trkpt>
        <trkpt lat="29.356742" lon="105.403796"><ele>441.75455</ele><time>2025-11-08T21:49:46.000Z</time></trkpt>
        <trkpt lat="29.356816" lon="105.403669"><ele>442.45932</ele><time>2025-11-08T21:50:19.000Z</time></trkpt>
        <trkpt lat="29.356937" lon="105.403399"><ele>436.20322</ele><time>2025-11-08T21:50:34.000Z</time></trkpt>
        <trkpt lat="29.357316" lon="105.4032"><ele>434.4705</ele><time>2025-11-08T21:50:51.000Z</time></trkpt>
        <trkpt lat="29.357415" lon="105.403193"><ele>436.89944</ele><time>2025-11-08T21:51:01.000Z</time></trkpt>
        <trkpt lat="29.357423" lon="105.403181"><ele>437.18625</ele><time>2025-11-08T21:51:02.000Z</time></trkpt>
        <trkpt lat="29.357616" lon="105.402973"><ele>437.4155</ele><time>2025-11-08T21:51:55.000Z</time></trkpt>
        <trkpt lat="29.357679" lon="105.402913"><ele>439.5543</ele><time>2025-11-08T21:52:35.000Z</time></trkpt>
        <trkpt lat="29.357839" lon="105.402755"><ele>440.68405</ele><time>2025-11-08T21:52:56.000Z</time></trkpt>
        <trkpt lat="29.357957" lon="105.40235"><ele>437.15024</ele><time>2025-11-08T21:53:15.000Z</time></trkpt>
        <trkpt lat="29.35798" lon="105.401913"><ele>433.35434</ele><time>2025-11-08T21:53:31.000Z</time></trkpt>
        <trkpt lat="29.357943" lon="105.401799"><ele>431.34982</ele><time>2025-11-08T21:53:41.000Z</time></trkpt>
        <trkpt lat="29.358064" lon="105.401574"><ele>431.0806</ele><time>2025-11-08T21:54:45.000Z</time></trkpt>
        <trkpt lat="29.357807" lon="105.401338"><ele>423.86636</ele><time>2025-11-08T21:54:50.000Z</time></trkpt>
        <trkpt lat="29.358082" lon="105.401206"><ele>428.07028</ele><time>2025-11-08T21:55:02.000Z</time></trkpt>
        <trkpt lat="29.358139" lon="105.400805"><ele>426.2065</ele><time>2025-11-08T21:55:32.000Z</time></trkpt>
        <trkpt lat="29.358111" lon="105.400731"><ele>424.52725</ele><time>2025-11-08T21:55:49.000Z</time></trkpt>
        <trkpt lat="29.358267" lon="105.400909"><ele>426.9067</ele><time>2025-11-08T21:56:02.000Z</time></trkpt>
        <trkpt lat="29.358438" lon="105.400833"><ele>426.9033</ele><time>2025-11-08T21:56:19.000Z</time></trkpt>
        <trkpt lat="29.358586" lon="105.400696"><ele>424.7499</ele><time>2025-11-08T21:56:33.000Z</time></trkpt>
        <trkpt lat="29.358649" lon="105.400616"><ele>423.28574</ele><time>2025-11-08T21:56:42.000Z</time></trkpt>
        <trkpt lat="29.358716" lon="105.400544"><ele>421.5693</ele><time>2025-11-08T21:56:54.000Z</time></trkpt>
        <trkpt lat="29.358962" lon="105.400492"><ele>418.93405</ele><time>2025-11-08T21:57:14.000Z</time></trkpt>
        <trkpt lat="29.358998" lon="105.400383"><ele>418.21005</ele><time>2025-11-08T21:57:19.000Z</time></trkpt>
        <trkpt lat="29.358906" lon="105.4004"><ele>419.23508</ele><time>2025-11-08T21:57:37.000Z</time></trkpt>
        <trkpt lat="29.358981" lon="105.400482"><ele>418.66635</ele><time>2025-11-08T21:57:55.000Z</time></trkpt>
        <trkpt lat="29.359089" lon="105.400244"><ele>417.75034</ele><time>2025-11-08T21:58:09.000Z</time></trkpt>
        <trkpt lat="29.35902" lon="105.400303"><ele>417.61716</ele><time>2025-11-08T21:58:25.000Z</time></trkpt>
        <trkpt lat="29.359085" lon="105.400387"><ele>417.0543</ele><time>2025-11-08T21:59:16.000Z</time></trkpt>
        <trkpt lat="29.359178" lon="105.400358"><ele>415.67935</ele><time>2025-11-08T22:00:32.000Z</time></trkpt>
        <trkpt lat="29.359573" lon="105.400507"><ele>409.46915</ele><time>2025-11-08T22:00:50.000Z</time></trkpt>
        <trkpt lat="29.359862" lon="105.400595"><ele>403.66098</ele><time>2025-11-08T22:00:57.000Z</time></trkpt>
        <trkpt lat="29.359946" lon="105.400634"><ele>402.9578</ele><time>2025-11-08T22:01:08.000Z</time></trkpt>
        <trkpt lat="29.359729" lon="105.400724"><ele>404.905</ele><time>2025-11-08T22:02:02.000Z</time></trkpt>
        <trkpt lat="29.360094" lon="105.400814"><ele>400.93582</ele><time>2025-11-08T22:02:37.000Z</time></trkpt>
        <trkpt lat="29.360451" lon="105.40092"><ele>396.34933</ele><time>2025-11-08T22:03:07.000Z</time></trkpt>
        <trkpt lat="29.360473" lon="105.400798"><ele>394.2419</ele><time>2025-11-08T22:03:36.000Z</time></trkpt>
        <trkpt lat="29.36042" lon="105.400676"><ele>394.91544</ele><time>2025-11-08T22:04:01.000Z</time></trkpt>
        <trkpt lat="29.360848" lon="105.400555"><ele>379.0753</ele><time>2025-11-08T22:04:30.000Z</time></trkpt>
        <trkpt lat="29.360927" lon="105.400612"><ele>378.9457</ele><time>2025-11-08T22:04:43.000Z</time></trkpt>
        <trkpt lat="29.361146" lon="105.400674"><ele>375.9943</ele><time>2025-11-08T22:05:08.000Z</time></trkpt>
        <trkpt lat="29.361292" lon="105.400782"><ele>372.1122</ele><time>2025-11-08T22:05:23.000Z</time></trkpt>
        <trkpt lat="29.361453" lon="105.400796"><ele>369.6102</ele><time>2025-11-08T22:05:43.000Z</time></trkpt>
        <trkpt lat="29.361376" lon="105.400699"><ele>367.89804</ele><time>2025-11-08T22:05:50.000Z</time></trkpt>
        <trkpt lat="29.361314" lon="105.400622"><ele>368.95297</ele><time>2025-11-08T22:05:55.000Z</time></trkpt>
        <trkpt lat="29.361636" lon="105.4007"><ele>366.90292</ele><time>2025-11-08T22:06:03.000Z</time></trkpt>
        <trkpt lat="29.361767" lon="105.40068"><ele>365.69437</ele><time>2025-11-08T22:06:56.000Z</time></trkpt>
        <trkpt lat="29.36171" lon="105.400963"><ele>362.08908</ele><time>2025-11-08T22:07:05.000Z</time></trkpt>
        <trkpt lat="29.361813" lon="105.401137"><ele>358.65195</ele><time>2025-11-08T22:07:13.000Z</time></trkpt>
        <trkpt lat="29.361734" lon="105.401204"><ele>360.05112</ele><time>2025-11-08T22:07:18.000Z</time></trkpt>
        <trkpt lat="29.36186" lon="105.400739"><ele>365.2617</ele><time>2025-11-08T22:09:22.000Z</time></trkpt>
        <trkpt lat="29.362047" lon="105.400663"><ele>364.3962</ele><time>2025-11-08T22:09:44.000Z</time></trkpt>
        <trkpt lat="29.362251" lon="105.400573"><ele>363.54135</ele><time>2025-11-08T22:10:22.000Z</time></trkpt>
        <trkpt lat="29.362318" lon="105.400499"><ele>363.5958</ele><time>2025-11-08T22:10:29.000Z</time></trkpt>
        <trkpt lat="29.362668" lon="105.400506"><ele>358.8633</ele><time>2025-11-08T22:11:22.000Z</time></trkpt>
        <trkpt lat="29.362527" lon="105.400393"><ele>364.6539</ele><time>2025-11-08T22:11:38.000Z</time></trkpt>
        <trkpt lat="29.362594" lon="105.400322"><ele>366.99924</ele><time>2025-11-08T22:11:55.000Z</time></trkpt>
        <trkpt lat="29.363005" lon="105.400468"><ele>355.87692</ele><time>2025-11-08T22:12:28.000Z</time></trkpt>
        <trkpt lat="29.363044" lon="105.400429"><ele>357.02798</ele><time>2025-11-08T22:12:31.000Z</time></trkpt>
        <trkpt lat="29.36298" lon="105.40052"><ele>356.38852</ele><time>2025-11-08T22:13:05.000Z</time></trkpt>
        <trkpt lat="29.363069" lon="105.400481"><ele>355.37216</ele><time>2025-11-08T22:13:16.000Z</time></trkpt>
        <trkpt lat="29.363122" lon="105.40051"><ele>355.1113</ele><time>2025-11-08T22:13:38.000Z</time></trkpt>
        <trkpt lat="29.363149" lon="105.400621"><ele>355.3066</ele><time>2025-11-08T22:13:58.000Z</time></trkpt>
        <trkpt lat="29.363099" lon="105.40053"><ele>355.38815</ele><time>2025-11-08T22:14:12.000Z</time></trkpt>
        <trkpt lat="29.363006" lon="105.400736"><ele>355.1003</ele><time>2025-11-08T22:14:24.000Z</time></trkpt>
        <trkpt lat="29.362982" lon="105.400836"><ele>356.23032</ele><time>2025-11-08T22:14:36.000Z</time></trkpt>
        <trkpt lat="29.363022" lon="105.40072"><ele>355.28976</ele><time>2025-11-08T22:14:51.000Z</time></trkpt>
        <trkpt lat="29.362949" lon="105.400628"><ele>354.92343</ele><time>2025-11-08T22:15:09.000Z</time></trkpt>
        <trkpt lat="29.362999" lon="105.400524"><ele>354.6064</ele><time>2025-11-08T22:15:29.000Z</time></trkpt>
        <trkpt lat="29.363266" lon="105.400569"><ele>353.2728</ele><time>2025-11-08T22:15:46.000Z</time></trkpt>
        <trkpt lat="29.363164" lon="105.400723"><ele>353.50717</ele><time>2025-11-08T22:16:09.000Z</time></trkpt>
        <trkpt lat="29.363088" lon="105.400665"><ele>352.18936</ele><time>2025-11-08T22:16:37.000Z</time></trkpt>
        <trkpt lat="29.363054" lon="105.400564"><ele>350.3646</ele><time>2025-11-08T22:16:53.000Z</time></trkpt>
        <trkpt lat="29.363026" lon="105.400523"><ele>350.01962</ele><time>2025-11-08T22:16:55.000Z</time></trkpt>
        <trkpt lat="29.363061" lon="105.400671"><ele>350.99417</ele><time>2025-11-08T22:17:14.000Z</time></trkpt>
        <trkpt lat="29.363143" lon="105.40072"><ele>353.11758</ele><time>2025-11-08T22:17:20.000Z</time></trkpt>
        <trkpt lat="29.363115" lon="105.400624"><ele>351.80338</ele><time>2025-11-08T22:18:21.000Z</time></trkpt>
        <trkpt lat="29.363173" lon="105.400708"><ele>352.89645</ele><time>2025-11-08T22:18:42.000Z</time></trkpt>
        <trkpt lat="29.363114" lon="105.400819"><ele>353.2877</ele><time>2025-11-08T22:19:05.000Z</time></trkpt>
        <trkpt lat="29.363096" lon="105.400741"><ele>352.33176</ele><time>2025-11-08T22:19:37.000Z</time></trkpt>
        <trkpt lat="29.363073" lon="105.400659"><ele>352.5908</ele><time>2025-11-08T22:19:41.000Z</time></trkpt>
        <trkpt lat="29.363044" lon="105.400555"><ele>351.98752</ele><time>2025-11-08T22:19:48.000Z</time></trkpt>
        <trkpt lat="29.363001" lon="105.400445"><ele>353.2972</ele><time>2025-11-08T22:19:56.000Z</time></trkpt>
        <trkpt lat="29.363009" lon="105.400648"><ele>354.46805</ele><time>2025-11-08T22:19:58.000Z</time></trkpt>
        <trkpt lat="29.363115" lon="105.400814"><ele>354.87766</ele><time>2025-11-08T22:20:26.000Z</time></trkpt>
        <trkpt lat="29.362964" lon="105.400801"><ele>355.10556</ele><time>2025-11-08T22:21:23.000Z</time></trkpt>
        <trkpt lat="29.362747" lon="105.40093"><ele>356.57846</ele><time>2025-11-08T22:21:34.000Z</time></trkpt>
        <trkpt lat="29.362637" lon="105.400951"><ele>356.79916</ele><time>2025-11-08T22:21:42.000Z</time></trkpt>
        <trkpt lat="29.362547" lon="105.400965"><ele>357.1865</ele><time>2025-11-08T22:21:47.000Z</time></trkpt>
        <trkpt lat="29.362377" lon="105.401043"><ele>358.82236</ele><time>2025-11-08T22:22:12.000Z</time></trkpt>
        <trkpt lat="29.362275" lon="105.401058"><ele>358.71353</ele><time>2025-11-08T22:22:25.000Z</time></trkpt>
        <trkpt lat="29.362346" lon="105.400953"><ele>357.5864</ele><time>2025-11-08T22:22:48.000Z</time></trkpt>
        <trkpt lat="29.362439" lon="105.400933"><ele>356.98447</ele><time>2025-11-08T22:22:54.000Z</time></trkpt>
        <trkpt lat="29.36252" lon="105.400887"><ele>356.1971</ele><time>2025-11-08T22:23:02.000Z</time></trkpt>
        <trkpt lat="29.362454" lon="105.401005"><ele>357.7695</ele><time>2025-11-08T22:23:13.000Z</time></trkpt>
        <trkpt lat="29.362372" lon="105.40106"><ele>358.38425</ele><time>2025-11-08T22:23:20.000Z</time></trkpt>
        <trkpt lat="29.362303" lon="105.401086"><ele>357.7253</ele><time>2025-11-08T22:23:25.000Z</time></trkpt>
        <trkpt lat="29.362127" lon="105.401147"><ele>359.58835</ele><time>2025-11-08T22:23:44.000Z</time></trkpt>
        <trkpt lat="29.362056" lon="105.401239"><ele>359.1876</ele><time>2025-11-08T22:24:03.000Z</time></trkpt>
        <trkpt lat="29.36201" lon="105.401443"><ele>360.37326</ele><time>2025-11-08T22:24:13.000Z</time></trkpt>
        <trkpt lat="29.36202" lon="105.401564"><ele>360.18466</ele><time>2025-11-08T22:24:24.000Z</time></trkpt>
        <trkpt lat="29.361952" lon="105.401641"><ele>366.40036</ele><time>2025-11-08T22:24:33.000Z</time></trkpt>
        <trkpt lat="29.362007" lon="105.401751"><ele>365.63803</ele><time>2025-11-08T22:24:56.000Z</time></trkpt>
        <trkpt lat="29.362108" lon="105.401929"><ele>375.44073</ele><time>2025-11-08T22:25:16.000Z</time></trkpt>
        <trkpt lat="29.362118" lon="105.401806"><ele>376.06863</ele><time>2025-11-08T22:25:29.000Z</time></trkpt>
        <trkpt lat="29.362153" lon="105.401579"><ele>372.62927</ele><time>2025-11-08T22:25:45.000Z</time></trkpt>
        <trkpt lat="29.361291" lon="105.402527"><ele>363.79575</ele><time>2025-11-08T22:26:51.000Z</time></trkpt>
        <trkpt lat="29.361263" lon="105.402629"><ele>366.14328</ele><time>2025-11-08T22:27:35.000Z</time></trkpt>
        <trkpt lat="29.361151" lon="105.402652"><ele>365.79227</ele><time>2025-11-08T22:27:46.000Z</time></trkpt>
        <trkpt lat="29.361085" lon="105.402696"><ele>366.36404</ele><time>2025-11-08T22:28:00.000Z</time></trkpt>
        <trkpt lat="29.361064" lon="105.402797"><ele>367.53262</ele><time>2025-11-08T22:28:35.000Z</time></trkpt>
        <trkpt lat="29.361004" lon="105.402997"><ele>369.0936</ele><time>2025-11-08T22:28:52.000Z</time></trkpt>
        <trkpt lat="29.360924" lon="105.403062"><ele>370.2441</ele><time>2025-11-08T22:29:01.000Z</time></trkpt>
        <trkpt lat="29.360841" lon="105.403118"><ele>370.48672</ele><time>2025-11-08T22:29:07.000Z</time></trkpt>
        <trkpt lat="29.360642" lon="105.403212"><ele>367.05563</ele><time>2025-11-08T22:29:16.000Z</time></trkpt>
        <trkpt lat="29.360697" lon="105.403255"><ele>375.233</ele><time>2025-11-08T22:30:12.000Z</time></trkpt>
        <trkpt lat="29.360596" lon="105.403285"><ele>374.54758</ele><time>2025-11-08T22:30:15.000Z</time></trkpt>
        <trkpt lat="29.360773" lon="105.403349"><ele>374.92136</ele><time>2025-11-08T22:30:46.000Z</time></trkpt>
        <trkpt lat="29.360765" lon="105.403503"><ele>380.74667</ele><time>2025-11-08T22:31:27.000Z</time></trkpt>
        <trkpt lat="29.360757" lon="105.403915"><ele>393.18332</ele><time>2025-11-08T22:31:57.000Z</time></trkpt>
        <trkpt lat="29.360804" lon="105.404006"><ele>397.01987</ele><time>2025-11-08T22:32:05.000Z</time></trkpt>
        <trkpt lat="29.360648" lon="105.404053"><ele>392.55807</ele><time>2025-11-08T22:32:36.000Z</time></trkpt>
        <trkpt lat="29.360539" lon="105.404462"><ele>383.7462</ele><time>2025-11-08T22:33:04.000Z</time></trkpt>
        <trkpt lat="29.360446" lon="105.404471"><ele>379.8619</ele><time>2025-11-08T22:33:21.000Z</time></trkpt>
        <trkpt lat="29.36045" lon="105.404482"><ele>385.63132</ele><time>2025-11-08T22:33:51.000Z</time></trkpt>
        <trkpt lat="29.360805" lon="105.404693"><ele>391.68137</ele><time>2025-11-08T22:34:12.000Z</time></trkpt>
        <trkpt lat="29.360837" lon="105.40499"><ele>406.95554</ele><time>2025-11-08T22:34:21.000Z</time></trkpt>
        <trkpt lat="29.360746" lon="105.405007"><ele>408.14487</ele><time>2025-11-08T22:34:39.000Z</time></trkpt>
        <trkpt lat="29.360357" lon="105.405135"><ele>401.5864</ele><time>2025-11-08T22:34:56.000Z</time></trkpt>
        <trkpt lat="29.360452" lon="105.405258"><ele>406.0062</ele><time>2025-11-08T22:35:17.000Z</time></trkpt>
        <trkpt lat="29.36037" lon="105.405312"><ele>403.9526</ele><time>2025-11-08T22:35:20.000Z</time></trkpt>
        <trkpt lat="29.360303" lon="105.405385"><ele>400.45737</ele><time>2025-11-08T22:35:29.000Z</time></trkpt>
        <trkpt lat="29.3603" lon="105.405498"><ele>403.3447</ele><time>2025-11-08T22:35:46.000Z</time></trkpt>
        <trkpt lat="29.360387" lon="105.405534"><ele>408.2795</ele><time>2025-11-08T22:35:56.000Z</time></trkpt>
        <trkpt lat="29.360403" lon="105.405636"><ele>411.42233</ele><time>2025-11-08T22:36:04.000Z</time></trkpt>
        <trkpt lat="29.360465" lon="105.405813"><ele>413.26132</ele><time>2025-11-08T22:36:30.000Z</time></trkpt>
        <trkpt lat="29.360487" lon="105.405917"><ele>419.34897</ele><time>2025-11-08T22:36:43.000Z</time></trkpt>
        <trkpt lat="29.360449" lon="105.40603"><ele>423.88315</ele><time>2025-11-08T22:37:06.000Z</time></trkpt>
        <trkpt lat="29.360368" lon="105.406235"><ele>423.62277</ele><time>2025-11-08T22:37:20.000Z</time></trkpt>
        <trkpt lat="29.360186" lon="105.406173"><ele>413.39224</ele><time>2025-11-08T22:37:39.000Z</time></trkpt>
        <trkpt lat="29.360125" lon="105.406378"><ele>411.019</ele><time>2025-11-08T22:37:49.000Z</time></trkpt>
        <trkpt lat="29.360167" lon="105.406473"><ele>419.06808</ele><time>2025-11-08T22:38:08.000Z</time></trkpt>
        <trkpt lat="29.360131" lon="105.406582"><ele>426.52457</ele><time>2025-11-08T22:38:29.000Z</time></trkpt>
        <trkpt lat="29.360039" lon="105.406606"><ele>421.51254</ele><time>2025-11-08T22:38:38.000Z</time></trkpt>
        <trkpt lat="29.360043" lon="105.407075"><ele>427.57217</ele><time>2025-11-08T22:39:20.000Z</time></trkpt>
        <trkpt lat="29.360242" lon="105.406912"><ele>432.2319</ele><time>2025-11-08T22:39:35.000Z</time></trkpt>
        <trkpt lat="29.359918" lon="105.407121"><ele>425.145</ele><time>2025-11-08T22:40:00.000Z</time></trkpt>
        <trkpt lat="29.359883" lon="105.407222"><ele>426.15433</ele><time>2025-11-08T22:40:05.000Z</time></trkpt>
        <trkpt lat="29.359859" lon="105.40733"><ele>426.47495</ele><time>2025-11-08T22:40:11.000Z</time></trkpt>
        <trkpt lat="29.359833" lon="105.40744"><ele>427.436</ele><time>2025-11-08T22:40:18.000Z</time></trkpt>
        <trkpt lat="29.35954" lon="105.407415"><ele>421.47482</ele><time>2025-11-08T22:40:30.000Z</time></trkpt>
        <trkpt lat="29.359361" lon="105.40733"><ele>418.9191</ele><time>2025-11-08T22:40:48.000Z</time></trkpt>
        <trkpt lat="29.359276" lon="105.407393"><ele>417.9763</ele><time>2025-11-08T22:40:59.000Z</time></trkpt>
        <trkpt lat="29.35916" lon="105.407367"><ele>417.37173</ele><time>2025-11-08T22:41:23.000Z</time></trkpt>
        <trkpt lat="29.359203" lon="105.407493"><ele>417.44052</ele><time>2025-11-08T22:41:54.000Z</time></trkpt>
        <trkpt lat="29.359244" lon="105.407586"><ele>419.43063</ele><time>2025-11-08T22:42:02.000Z</time></trkpt>
        <trkpt lat="29.358948" lon="105.407416"><ele>416.10837</ele><time>2025-11-08T22:42:28.000Z</time></trkpt>
        <trkpt lat="29.358652" lon="105.407687"><ele>421.90817</ele><time>2025-11-08T22:43:23.000Z</time></trkpt>
        <trkpt lat="29.358606" lon="105.407786"><ele>423.38184</ele><time>2025-11-08T22:44:05.000Z</time></trkpt>
        <trkpt lat="29.358795" lon="105.407771"><ele>421.9233</ele><time>2025-11-08T22:44:36.000Z</time></trkpt>
        <trkpt lat="29.35874" lon="105.407809"><ele>422.80893</ele><time>2025-11-08T22:45:41.000Z</time></trkpt>
        <trkpt lat="29.358666" lon="105.40846"><ele>438.23654</ele><time>2025-11-08T22:46:51.000Z</time></trkpt>
        <trkpt lat="29.358322" lon="105.408468"><ele>436.35867</ele><time>2025-11-08T22:46:53.000Z</time></trkpt>
        <trkpt lat="29.357974" lon="105.408543"><ele>431.89877</ele><time>2025-11-08T22:47:08.000Z</time></trkpt>
        <trkpt lat="29.357945" lon="105.408561"><ele>430.0095</ele><time>2025-11-08T22:47:09.000Z</time></trkpt>
        <trkpt lat="29.358154" lon="105.408463"><ele>430.08664</ele><time>2025-11-08T22:47:12.000Z</time></trkpt>
        <trkpt lat="29.358234" lon="105.408512"><ele>431.87766</ele><time>2025-11-08T22:47:28.000Z</time></trkpt>
        <trkpt lat="29.358321" lon="105.408539"><ele>432.34335</ele><time>2025-11-08T22:47:59.000Z</time></trkpt>
        <trkpt lat="29.358302" lon="105.408428"><ele>430.64426</ele><time>2025-11-08T22:48:19.000Z</time></trkpt>
        <trkpt lat="29.358447" lon="105.408419"><ele>432.38547</ele><time>2025-11-08T22:48:37.000Z</time></trkpt>
        <trkpt lat="29.358244" lon="105.408539"><ele>430.7949</ele><time>2025-11-08T22:48:49.000Z</time></trkpt>
        <trkpt lat="29.357953" lon="105.408927"><ele>428.60352</ele><time>2025-11-08T22:49:02.000Z</time></trkpt>
        <trkpt lat="29.357892" lon="105.409381"><ele>434.79733</ele><time>2025-11-08T22:50:17.000Z</time></trkpt>
        <trkpt lat="29.357587" lon="105.409446"><ele>432.51364</ele><time>2025-11-08T22:50:40.000Z</time></trkpt>
        <trkpt lat="29.357817" lon="105.409477"><ele>434.67355</ele><time>2025-11-08T22:51:33.000Z</time></trkpt>
        <trkpt lat="29.357721" lon="105.409483"><ele>434.14902</ele><time>2025-11-08T22:51:46.000Z</time></trkpt>
        <trkpt lat="29.35763" lon="105.409516"><ele>433.97098</ele><time>2025-11-08T22:51:56.000Z</time></trkpt>
        <trkpt lat="29.357377" lon="105.409721"><ele>438.5765</ele><time>2025-11-08T22:52:13.000Z</time></trkpt>
        <trkpt lat="29.357281" lon="105.410119"><ele>445.8882</ele><time>2025-11-08T22:52:31.000Z</time></trkpt>
        <trkpt lat="29.357183" lon="105.41012"><ele>446.95993</ele><time>2025-11-08T22:52:42.000Z</time></trkpt>
        <trkpt lat="29.356956" lon="105.409966"><ele>444.62778</ele><time>2025-11-08T22:53:02.000Z</time></trkpt>
        <trkpt lat="29.356987" lon="105.410065"><ele>446.50876</ele><time>2025-11-08T22:53:10.000Z</time></trkpt>
        <trkpt lat="29.356955" lon="105.410162"><ele>448.4695</ele><time>2025-11-08T22:53:15.000Z</time></trkpt>
        <trkpt lat="29.356946" lon="105.410095"><ele>448.82095</ele><time>2025-11-08T22:53:37.000Z</time></trkpt>
        <trkpt lat="29.356823" lon="105.410196"><ele>444.27573</ele><time>2025-11-08T22:53:58.000Z</time></trkpt>
        <trkpt lat="29.356737" lon="105.410162"><ele>445.8071</ele><time>2025-11-08T22:54:02.000Z</time></trkpt>
        <trkpt lat="29.356639" lon="105.410153"><ele>443.43436</ele><time>2025-11-08T22:54:06.000Z</time></trkpt>
        <trkpt lat="29.356293" lon="105.410149"><ele>454.13162</ele><time>2025-11-08T22:54:12.000Z</time></trkpt>
        <trkpt lat="29.356548" lon="105.410506"><ele>453.8179</ele><time>2025-11-08T22:54:45.000Z</time></trkpt>
        <trkpt lat="29.356334" lon="105.410591"><ele>455.7925</ele><time>2025-11-08T22:55:13.000Z</time></trkpt>
        <trkpt lat="29.356249" lon="105.410656"><ele>455.1768</ele><time>2025-11-08T22:55:19.000Z</time></trkpt>
        <trkpt lat="29.356323" lon="105.410642"><ele>455.4136</ele><time>2025-11-08T22:55:33.000Z</time></trkpt>
        <trkpt lat="29.355957" lon="105.410731"><ele>467.6998</ele><time>2025-11-08T22:55:47.000Z</time></trkpt>
        <trkpt lat="29.355825" lon="105.41079"><ele>470.6755</ele><time>2025-11-08T22:55:57.000Z</time></trkpt>
        <trkpt lat="29.35567" lon="105.410957"><ele>472.7142</ele><time>2025-11-08T22:56:20.000Z</time></trkpt>
        <trkpt lat="29.35576" lon="105.41093"><ele>472.97263</ele><time>2025-11-08T22:56:26.000Z</time></trkpt>
        <trkpt lat="29.355918" lon="105.411086"><ele>469.1451</ele><time>2025-11-08T22:56:42.000Z</time></trkpt>
        <trkpt lat="29.355764" lon="105.411039"><ele>469.81955</ele><time>2025-11-08T22:57:05.000Z</time></trkpt>
        <trkpt lat="29.355794" lon="105.411124"><ele>470.71323</ele><time>2025-11-08T22:58:34.000Z</time></trkpt>
        <trkpt lat="29.355017" lon="105.411179"><ele>481.59024</ele><time>2025-11-08T22:59:29.000Z</time></trkpt>
        <trkpt lat="29.354949" lon="105.410925"><ele>480.94016</ele><time>2025-11-08T22:59:43.000Z</time></trkpt>
        <trkpt lat="29.354939" lon="105.410819"><ele>485.57028</ele><time>2025-11-08T22:59:53.000Z</time></trkpt>
        <trkpt lat="29.354846" lon="105.410834"><ele>482.25735</ele><time>2025-11-08T23:00:24.000Z</time></trkpt>
        <trkpt lat="29.354932" lon="105.410875"><ele>482.6086</ele><time>2025-11-08T23:00:33.000Z</time></trkpt>
        <trkpt lat="29.354937" lon="105.411173"><ele>480.11557</ele><time>2025-11-08T23:01:03.000Z</time></trkpt>
        <trkpt lat="29.354709" lon="105.410985"><ele>480.3348</ele><time>2025-11-08T23:01:24.000Z</time></trkpt>
        <trkpt lat="29.354893" lon="105.410976"><ele>479.27786</ele><time>2025-11-08T23:02:15.000Z</time></trkpt>
        <trkpt lat="29.354705" lon="105.411088"><ele>480.1154</ele><time>2025-11-08T23:03:19.000Z</time></trkpt>
        <trkpt lat="29.354643" lon="105.411175"><ele>480.5228</ele><time>2025-11-08T23:03:25.000Z</time></trkpt>
        <trkpt lat="29.35462" lon="105.411307"><ele>482.79086</ele><time>2025-11-08T23:03:41.000Z</time></trkpt>
        <trkpt lat="29.354537" lon="105.411366"><ele>482.99173</ele><time>2025-11-08T23:04:09.000Z</time></trkpt>
        <trkpt lat="29.354619" lon="105.411306"><ele>483.36252</ele><time>2025-11-08T23:04:20.000Z</time></trkpt>
        <trkpt lat="29.354711" lon="105.411319"><ele>484.08713</ele><time>2025-11-08T23:04:49.000Z</time></trkpt>
        <trkpt lat="29.354923" lon="105.411243"><ele>481.0663</ele><time>2025-11-08T23:06:11.000Z</time></trkpt>
        <trkpt lat="29.354903" lon="105.411244"><ele>485.7784</ele><time>2025-11-08T23:06:33.000Z</time></trkpt>
        <trkpt lat="29.354537" lon="105.411227"><ele>480.79208</ele><time>2025-11-08T23:07:29.000Z</time></trkpt>
        <trkpt lat="29.354779" lon="105.411309"><ele>485.44016</ele><time>2025-11-08T23:07:59.000Z</time></trkpt>
        <trkpt lat="29.354797" lon="105.41142"><ele>483.94858</ele><time>2025-11-08T23:08:21.000Z</time></trkpt>
        <trkpt lat="29.355238" lon="105.411635"><ele>483.0521</ele><time>2025-11-08T23:08:47.000Z</time></trkpt>
        <trkpt lat="29.355332" lon="105.411662"><ele>483.8652</ele><time>2025-11-08T23:08:56.000Z</time></trkpt>
        <trkpt lat="29.355434" lon="105.411645"><ele>484.60617</ele><time>2025-11-08T23:09:07.000Z</time></trkpt>
        <trkpt lat="29.355422" lon="105.41163"><ele>486.85666</ele><time>2025-11-08T23:09:09.000Z</time></trkpt>
        <trkpt lat="29.355454" lon="105.411526"><ele>484.0261</ele><time>2025-11-08T23:09:42.000Z</time></trkpt>
        <trkpt lat="29.355568" lon="105.411633"><ele>486.0549</ele><time>2025-11-08T23:10:15.000Z</time></trkpt>
        <trkpt lat="29.355629" lon="105.411808"><ele>494.43088</ele><time>2025-11-08T23:11:15.000Z</time></trkpt>
        <trkpt lat="29.356152" lon="105.412563"><ele>487.16904</ele><time>2025-11-08T23:12:34.000Z</time></trkpt>
        <trkpt lat="29.356046" lon="105.412533"><ele>486.38437</ele><time>2025-11-08T23:12:54.000Z</time></trkpt>
        <trkpt lat="29.356041" lon="105.41254"><ele>486.96622</ele><time>2025-11-08T23:12:56.000Z</time></trkpt>
        <trkpt lat="29.355965" lon="105.412527"><ele>487.81882</ele><time>2025-11-08T23:13:01.000Z</time></trkpt>
        <trkpt lat="29.355873" lon="105.412514"><ele>488.05185</ele><time>2025-11-08T23:13:07.000Z</time></trkpt>
        <trkpt lat="29.355676" lon="105.412519"><ele>490.49075</ele><time>2025-11-08T23:13:18.000Z</time></trkpt>
        <trkpt lat="29.355588" lon="105.412485"><ele>493.05832</ele><time>2025-11-08T23:13:26.000Z</time></trkpt>
        <trkpt lat="29.355702" lon="105.41252"><ele>490.68387</ele><time>2025-11-08T23:13:45.000Z</time></trkpt>
        <trkpt lat="29.355388" lon="105.412515"><ele>493.9374</ele><time>2025-11-08T23:14:06.000Z</time></trkpt>
        <trkpt lat="29.355442" lon="105.412599"><ele>491.0494</ele><time>2025-11-08T23:14:21.000Z</time></trkpt>
        <trkpt lat="29.355338" lon="105.412568"><ele>492.88388</ele><time>2025-11-08T23:14:31.000Z</time></trkpt>
        <trkpt lat="29.355245" lon="105.412601"><ele>493.25784</ele><time>2025-11-08T23:14:37.000Z</time></trkpt>
        <trkpt lat="29.355041" lon="105.412618"><ele>490.93564</ele><time>2025-11-08T23:14:45.000Z</time></trkpt>
        <trkpt lat="29.354922" lon="105.412584"><ele>488.59933</ele><time>2025-11-08T23:14:51.000Z</time></trkpt>
        <trkpt lat="29.354842" lon="105.412811"><ele>490.2733</ele><time>2025-11-08T23:16:13.000Z</time></trkpt>
        <trkpt lat="29.355011" lon="105.412819"><ele>490.62033</ele><time>2025-11-08T23:16:33.000Z</time></trkpt>
        <trkpt lat="29.354829" lon="105.412916"><ele>492.63705</ele><time>2025-11-08T23:17:09.000Z</time></trkpt>
        <trkpt lat="29.354823" lon="105.412916"><ele>491.21915</ele><time>2025-11-08T23:17:23.000Z</time></trkpt>
        <trkpt lat="29.35478" lon="105.413012"><ele>496.6312</ele><time>2025-11-08T23:17:35.000Z</time></trkpt>
        <trkpt lat="29.354766" lon="105.413138"><ele>498.8541</ele><time>2025-11-08T23:17:40.000Z</time></trkpt>
        <trkpt lat="29.354732" lon="105.413235"><ele>498.70102</ele><time>2025-11-08T23:17:44.000Z</time></trkpt>
        <trkpt lat="29.354724" lon="105.413252"><ele>497.67087</ele><time>2025-11-08T23:17:45.000Z</time></trkpt>
        <trkpt lat="29.354672" lon="105.413342"><ele>505.894</ele><time>2025-11-08T23:18:02.000Z</time></trkpt>
        <trkpt lat="29.354573" lon="105.41333"><ele>504.62424</ele><time>2025-11-08T23:18:26.000Z</time></trkpt>
        <trkpt lat="29.354481" lon="105.413319"><ele>505.1337</ele><time>2025-11-08T23:18:35.000Z</time></trkpt>
        <trkpt lat="29.354396" lon="105.413354"><ele>507.55173</ele><time>2025-11-08T23:18:42.000Z</time></trkpt>
        <trkpt lat="29.354354" lon="105.413326"><ele>507.27615</ele><time>2025-11-08T23:18:53.000Z</time></trkpt>
        <trkpt lat="29.354308" lon="105.413416"><ele>513.88605</ele><time>2025-11-08T23:19:06.000Z</time></trkpt>
        <trkpt lat="29.354388" lon="105.413475"><ele>512.9207</ele><time>2025-11-08T23:19:17.000Z</time></trkpt>
        <trkpt lat="29.354487" lon="105.413494"><ele>512.53467</ele><time>2025-11-08T23:19:43.000Z</time></trkpt>
        <trkpt lat="29.354316" lon="105.41337"><ele>513.8296</ele><time>2025-11-08T23:20:06.000Z</time></trkpt>
        <trkpt lat="29.354223" lon="105.413371"><ele>516.7179</ele><time>2025-11-08T23:20:27.000Z</time></trkpt>
        <trkpt lat="29.354297" lon="105.41343"><ele>516.8524</ele><time>2025-11-08T23:20:45.000Z</time></trkpt>
        <trkpt lat="29.354283" lon="105.413535"><ele>519.5075</ele><time>2025-11-08T23:20:58.000Z</time></trkpt>
        <trkpt lat="29.354227" lon="105.413633"><ele>522.8184</ele><time>2025-11-08T23:21:01.000Z</time></trkpt>
        <trkpt lat="29.354134" lon="105.413638"><ele>526.3474</ele><time>2025-11-08T23:21:11.000Z</time></trkpt>
        <trkpt lat="29.354056" lon="105.413567"><ele>525.5693</ele><time>2025-11-08T23:21:17.000Z</time></trkpt>
        <trkpt lat="29.354018" lon="105.413606"><ele>526.15546</ele><time>2025-11-08T23:21:28.000Z</time></trkpt>
        <trkpt lat="29.354104" lon="105.413657"><ele>526.4476</ele><time>2025-11-08T23:21:34.000Z</time></trkpt>
        <trkpt lat="29.354015" lon="105.413635"><ele>526.9801</ele><time>2025-11-08T23:22:17.000Z</time></trkpt>
        <trkpt lat="29.353925" lon="105.41361"><ele>527.33325</ele><time>2025-11-08T23:22:24.000Z</time></trkpt>
        <trkpt lat="29.353833" lon="105.413613"><ele>528.4183</ele><time>2025-11-08T23:22:31.000Z</time></trkpt>
        <trkpt lat="29.353688" lon="105.413482"><ele>529.82074</ele><time>2025-11-08T23:23:02.000Z</time></trkpt>
        <trkpt lat="29.353959" lon="105.413395"><ele>526.406</ele><time>2025-11-08T23:23:48.000Z</time></trkpt>
        <trkpt lat="29.353895" lon="105.413137"><ele>525.38654</ele><time>2025-11-08T23:23:56.000Z</time></trkpt>
        <trkpt lat="29.353915" lon="105.413239"><ele>525.19763</ele><time>2025-11-08T23:24:01.000Z</time></trkpt>
        <trkpt lat="29.353807" lon="105.413614"><ele>528.8085</ele><time>2025-11-08T23:24:45.000Z</time></trkpt>
        <trkpt lat="29.353886" lon="105.413697"><ele>528.9755</ele><time>2025-11-08T23:25:06.000Z</time></trkpt>
        <trkpt lat="29.353974" lon="105.413739"><ele>528.8621</ele><time>2025-11-08T23:25:13.000Z</time></trkpt>
        <trkpt lat="29.353871" lon="105.413746"><ele>531.12427</ele><time>2025-11-08T23:26:00.000Z</time></trkpt>
        <trkpt lat="29.353911" lon="105.413628"><ele>529.99066</ele><time>2025-11-08T23:26:05.000Z</time></trkpt>
        <trkpt lat="29.35397" lon="105.413731"><ele>527.8314</ele><time>2025-11-08T23:26:32.000Z</time></trkpt>
        <trkpt lat="29.353874" lon="105.413702"><ele>530.09705</ele><time>2025-11-08T23:26:38.000Z</time></trkpt>
        <trkpt lat="29.353988" lon="105.413662"><ele>528.26715</ele><time>2025-11-08T23:27:07.000Z</time></trkpt>
        <trkpt lat="29.353935" lon="105.413643"><ele>528.964</ele><time>2025-11-08T23:27:24.000Z</time></trkpt>
        <trkpt lat="29.353997" lon="105.413539"><ele>526.7827</ele><time>2025-11-08T23:27:34.000Z</time></trkpt>
        <trkpt lat="29.353986" lon="105.413434"><ele>526.0184</ele><time>2025-11-08T23:27:45.000Z</time></trkpt>
        <trkpt lat="29.353906" lon="105.413383"><ele>528.04504</ele><time>2025-11-08T23:28:15.000Z</time></trkpt>
        <trkpt lat="29.353984" lon="105.413441"><ele>526.4045</ele><time>2025-11-08T23:28:36.000Z</time></trkpt>
        <trkpt lat="29.35411" lon="105.413532"><ele>525.3671</ele><time>2025-11-08T23:28:54.000Z</time></trkpt>
        <trkpt lat="29.354161" lon="105.413438"><ele>522.2083</ele><time>2025-11-08T23:29:27.000Z</time></trkpt>
        <trkpt lat="29.354122" lon="105.413338"><ele>523.0499</ele><time>2025-11-08T23:29:35.000Z</time></trkpt>
        <trkpt lat="29.35402" lon="105.413343"><ele>524.4067</ele><time>2025-11-08T23:30:00.000Z</time></trkpt>
        <trkpt lat="29.353856" lon="105.413279"><ele>528.57745</ele><time>2025-11-08T23:30:09.000Z</time></trkpt>
        <trkpt lat="29.353762" lon="105.413259"><ele>529.7939</ele><time>2025-11-08T23:30:16.000Z</time></trkpt>
        <trkpt lat="29.353657" lon="105.413245"><ele>531.35724</ele><time>2025-11-08T23:30:22.000Z</time></trkpt>
        <trkpt lat="29.353383" lon="105.413148"><ele>530.68304</ele><time>2025-11-08T23:30:52.000Z</time></trkpt>
        <trkpt lat="29.353308" lon="105.413106"><ele>530.0331</ele><time>2025-11-08T23:31:01.000Z</time></trkpt>
        <trkpt lat="29.353221" lon="105.413047"><ele>529.65204</ele><time>2025-11-08T23:31:12.000Z</time></trkpt>
        <trkpt lat="29.353033" lon="105.412892"><ele>527.0379</ele><time>2025-11-08T23:31:49.000Z</time></trkpt>
        <trkpt lat="29.352942" lon="105.41284"><ele>527.02264</ele><time>2025-11-08T23:32:01.000Z</time></trkpt>
        <trkpt lat="29.352842" lon="105.412792"><ele>527.7776</ele><time>2025-11-08T23:32:11.000Z</time></trkpt>
        <trkpt lat="29.352696" lon="105.412676"><ele>533.7352</ele><time>2025-11-08T23:32:28.000Z</time></trkpt>
        <trkpt lat="29.352715" lon="105.412463"><ele>530.98517</ele><time>2025-11-08T23:32:39.000Z</time></trkpt>
        <trkpt lat="29.352627" lon="105.412447"><ele>527.4943</ele><time>2025-11-08T23:33:00.000Z</time></trkpt>
        <trkpt lat="29.352314" lon="105.412509"><ele>537.07916</ele><time>2025-11-08T23:33:23.000Z</time></trkpt>
        <trkpt lat="29.352219" lon="105.412529"><ele>546.1664</ele><time>2025-11-08T23:33:29.000Z</time></trkpt>
        <trkpt lat="29.352122" lon="105.412501"><ele>546.4381</ele><time>2025-11-08T23:33:34.000Z</time></trkpt>
        <trkpt lat="29.352169" lon="105.412407"><ele>545.4239</ele><time>2025-11-08T23:33:45.000Z</time></trkpt>
        <trkpt lat="29.352235" lon="105.412335"><ele>542.1392</ele><time>2025-11-08T23:33:57.000Z</time></trkpt>
        <trkpt lat="29.352131" lon="105.412352"><ele>547.5815</ele><time>2025-11-08T23:34:15.000Z</time></trkpt>
        <trkpt lat="29.352079" lon="105.412253"><ele>545.28125</ele><time>2025-11-08T23:34:26.000Z</time></trkpt>
        <trkpt lat="29.35206" lon="105.412152"><ele>543.77155</ele><time>2025-11-08T23:34:30.000Z</time></trkpt>
        <trkpt lat="29.35199" lon="105.412064"><ele>542.2934</ele><time>2025-11-08T23:34:35.000Z</time></trkpt>
        <trkpt lat="29.351923" lon="105.411986"><ele>541.06036</ele><time>2025-11-08T23:34:43.000Z</time></trkpt>
        <trkpt lat="29.351831" lon="105.412017"><ele>549.8663</ele><time>2025-11-08T23:34:49.000Z</time></trkpt>
        <trkpt lat="29.351751" lon="105.411928"><ele>549.3287</ele><time>2025-11-08T23:34:55.000Z</time></trkpt>
        <trkpt lat="29.351708" lon="105.411817"><ele>543.3525</ele><time>2025-11-08T23:34:59.000Z</time></trkpt>
        <trkpt lat="29.351652" lon="105.411734"><ele>537.4715</ele><time>2025-11-08T23:35:04.000Z</time></trkpt>
        <trkpt lat="29.351561" lon="105.411713"><ele>541.2889</ele><time>2025-11-08T23:35:11.000Z</time></trkpt>
        <trkpt lat="29.351577" lon="105.41168"><ele>537.6739</ele><time>2025-11-08T23:35:22.000Z</time></trkpt>
        <trkpt lat="29.351493" lon="105.411632"><ele>547.7956</ele><time>2025-11-08T23:35:36.000Z</time></trkpt>
        <trkpt lat="29.351549" lon="105.411548"><ele>549.63324</ele><time>2025-11-08T23:35:48.000Z</time></trkpt>
        <trkpt lat="29.35166" lon="105.411562"><ele>545.2974</ele><time>2025-11-08T23:35:53.000Z</time></trkpt>
        <trkpt lat="29.35176" lon="105.41157"><ele>545.1571</ele><time>2025-11-08T23:35:58.000Z</time></trkpt>
        <trkpt lat="29.351774" lon="105.411467"><ele>537.17694</ele><time>2025-11-08T23:36:07.000Z</time></trkpt>
        <trkpt lat="29.351762" lon="105.411358"><ele>535.9571</ele><time>2025-11-08T23:36:19.000Z</time></trkpt>
        <trkpt lat="29.35176" lon="105.411332"><ele>535.32404</ele><time>2025-11-08T23:36:20.000Z</time></trkpt>
        <trkpt lat="29.35176" lon="105.411215"><ele>541.8195</ele><time>2025-11-08T23:36:29.000Z</time></trkpt>
        <trkpt lat="29.351733" lon="105.411103"><ele>541.2911</ele><time>2025-11-08T23:36:34.000Z</time></trkpt>
        <trkpt lat="29.351677" lon="105.411022"><ele>538.1353</ele><time>2025-11-08T23:36:44.000Z</time></trkpt>
        <trkpt lat="29.351683" lon="105.410909"><ele>543.49005</ele><time>2025-11-08T23:37:04.000Z</time></trkpt>
        <trkpt lat="29.351655" lon="105.410803"><ele>539.9982</ele><time>2025-11-08T23:37:11.000Z</time></trkpt>
        <trkpt lat="29.351606" lon="105.41071"><ele>538.08435</ele><time>2025-11-08T23:37:19.000Z</time></trkpt>
        <trkpt lat="29.351538" lon="105.410781"><ele>533.07904</ele><time>2025-11-08T23:37:33.000Z</time></trkpt>
        <trkpt lat="29.351533" lon="105.410886"><ele>533.9568</ele><time>2025-11-08T23:37:45.000Z</time></trkpt>
        <trkpt lat="29.351442" lon="105.41096"><ele>538.3621</ele><time>2025-11-08T23:38:00.000Z</time></trkpt>
        <trkpt lat="29.351219" lon="105.411"><ele>539.4676</ele><time>2025-11-08T23:38:08.000Z</time></trkpt>
        <trkpt lat="29.351123" lon="105.411033"><ele>543.53864</ele><time>2025-11-08T23:38:13.000Z</time></trkpt>
        <trkpt lat="29.351023" lon="105.411013"><ele>546.3514</ele><time>2025-11-08T23:38:23.000Z</time></trkpt>
        <trkpt lat="29.351073" lon="105.410921"><ele>543.23083</ele><time>2025-11-08T23:38:31.000Z</time></trkpt>
        <trkpt lat="29.351068" lon="105.4106"><ele>538.79376</ele><time>2025-11-08T23:38:55.000Z</time></trkpt>
        <trkpt lat="29.351168" lon="105.410585"><ele>539.6626</ele><time>2025-11-08T23:39:01.000Z</time></trkpt>
        <trkpt lat="29.35108" lon="105.410705"><ele>544.1331</ele><time>2025-11-08T23:39:18.000Z</time></trkpt>
        <trkpt lat="29.351045" lon="105.410602"><ele>548.7675</ele><time>2025-11-08T23:39:27.000Z</time></trkpt>
        <trkpt lat="29.350972" lon="105.410528"><ele>546.7243</ele><time>2025-11-08T23:39:32.000Z</time></trkpt>
        <trkpt lat="29.350969" lon="105.410414"><ele>543.8343</ele><time>2025-11-08T23:39:44.000Z</time></trkpt>
        <trkpt lat="29.350905" lon="105.410272"><ele>544.2851</ele><time>2025-11-08T23:39:50.000Z</time></trkpt>
        <trkpt lat="29.350891" lon="105.410152"><ele>547.2534</ele><time>2025-11-08T23:39:59.000Z</time></trkpt>
        <trkpt lat="29.350852" lon="105.410059"><ele>545.9216</ele><time>2025-11-08T23:40:07.000Z</time></trkpt>
        <trkpt lat="29.350785" lon="105.409987"><ele>543.94745</ele><time>2025-11-08T23:40:18.000Z</time></trkpt>
        <trkpt lat="29.35069" lon="105.40996"><ele>544.2361</ele><time>2025-11-08T23:40:30.000Z</time></trkpt>
        <trkpt lat="29.350614" lon="105.409878"><ele>542.2352</ele><time>2025-11-08T23:40:36.000Z</time></trkpt>
        <trkpt lat="29.350528" lon="105.409718"><ele>538.8489</ele><time>2025-11-08T23:40:53.000Z</time></trkpt>
        <trkpt lat="29.35031" lon="105.409649"><ele>539.25555</ele><time>2025-11-08T23:41:22.000Z</time></trkpt>
        <trkpt lat="29.350397" lon="105.409559"><ele>538.12335</ele><time>2025-11-08T23:41:31.000Z</time></trkpt>
        <trkpt lat="29.350236" lon="105.409529"><ele>538.81665</ele><time>2025-11-08T23:41:37.000Z</time></trkpt>
        <trkpt lat="29.349952" lon="105.4094"><ele>546.4714</ele><time>2025-11-08T23:42:12.000Z</time></trkpt>
        <trkpt lat="29.349894" lon="105.409248"><ele>543.4614</ele><time>2025-11-08T23:42:30.000Z</time></trkpt>
        <trkpt lat="29.349886" lon="105.409142"><ele>544.4609</ele><time>2025-11-08T23:42:40.000Z</time></trkpt>
        <trkpt lat="29.349837" lon="105.409048"><ele>545.622</ele><time>2025-11-08T23:42:46.000Z</time></trkpt>
        <trkpt lat="29.349767" lon="105.40897"><ele>548.0522</ele><time>2025-11-08T23:42:57.000Z</time></trkpt>
        <trkpt lat="29.349694" lon="105.408884"><ele>548.8754</ele><time>2025-11-08T23:43:09.000Z</time></trkpt>
        <trkpt lat="29.34963" lon="105.40879"><ele>546.5489</ele><time>2025-11-08T23:43:30.000Z</time></trkpt>
        <trkpt lat="29.349464" lon="105.408912"><ele>549.6163</ele><time>2025-11-08T23:44:00.000Z</time></trkpt>
        <trkpt lat="29.349377" lon="105.408864"><ele>551.29364</ele><time>2025-11-08T23:44:09.000Z</time></trkpt>
        <trkpt lat="29.349282" lon="105.408842"><ele>551.8698</ele><time>2025-11-08T23:44:17.000Z</time></trkpt>
        <trkpt lat="29.349195" lon="105.408621"><ele>556.9505</ele><time>2025-11-08T23:44:44.000Z</time></trkpt>
        <trkpt lat="29.34918" lon="105.408515"><ele>560.7423</ele><time>2025-11-08T23:45:01.000Z</time></trkpt>
        <trkpt lat="29.34913" lon="105.408429"><ele>561.7233</ele><time>2025-11-08T23:45:10.000Z</time></trkpt>
        <trkpt lat="29.349086" lon="105.408246"><ele>560.3506</ele><time>2025-11-08T23:45:18.000Z</time></trkpt>
        <trkpt lat="29.348874" lon="105.408055"><ele>562.373</ele><time>2025-11-08T23:46:14.000Z</time></trkpt>
        <trkpt lat="29.34888" lon="105.40792"><ele>557.8181</ele><time>2025-11-08T23:46:21.000Z</time></trkpt>
        <trkpt lat="29.348723" lon="105.407982"><ele>567.86017</ele><time>2025-11-08T23:46:39.000Z</time></trkpt>
        <trkpt lat="29.348642" lon="105.407911"><ele>567.7767</ele><time>2025-11-08T23:46:46.000Z</time></trkpt>
        <trkpt lat="29.348588" lon="105.407823"><ele>571.9976</ele><time>2025-11-08T23:46:51.000Z</time></trkpt>
        <trkpt lat="29.348549" lon="105.407722"><ele>565.5201</ele><time>2025-11-08T23:46:55.000Z</time></trkpt>
        <trkpt lat="29.348559" lon="105.407272"><ele>566.69244</ele><time>2025-11-08T23:47:13.000Z</time></trkpt>
        <trkpt lat="29.348785" lon="105.407221"><ele>554.95667</ele><time>2025-11-08T23:48:01.000Z</time></trkpt>
        <trkpt lat="29.348678" lon="105.407162"><ele>559.48926</ele><time>2025-11-08T23:48:07.000Z</time></trkpt>
        <trkpt lat="29.348652" lon="105.407062"><ele>561.2497</ele><time>2025-11-08T23:48:20.000Z</time></trkpt>
        <trkpt lat="29.34866" lon="105.406955"><ele>560.6939</ele><time>2025-11-08T23:48:40.000Z</time></trkpt>
        <trkpt lat="29.348594" lon="105.40701"><ele>559.2506</ele><time>2025-11-08T23:48:56.000Z</time></trkpt>
        <trkpt lat="29.348515" lon="105.406934"><ele>567.00555</ele><time>2025-11-08T23:49:13.000Z</time></trkpt>
        <trkpt lat="29.348479" lon="105.406699"><ele>570.5362</ele><time>2025-11-08T23:49:51.000Z</time></trkpt>
        <trkpt lat="29.348468" lon="105.406355"><ele>566.0308</ele><time>2025-11-08T23:50:08.000Z</time></trkpt>
        <trkpt lat="29.348383" lon="105.40632"><ele>562.35516</ele><time>2025-11-08T23:50:19.000Z</time></trkpt>
        <trkpt lat="29.348282" lon="105.406399"><ele>570.0694</ele><time>2025-11-08T23:50:39.000Z</time></trkpt>
        <trkpt lat="29.348096" lon="105.406231"><ele>580.57086</ele><time>2025-11-08T23:51:11.000Z</time></trkpt>
        <trkpt lat="29.348059" lon="105.40614"><ele>575.15436</ele><time>2025-11-08T23:51:17.000Z</time></trkpt>
        <trkpt lat="29.34826" lon="105.405953"><ele>566.1973</ele><time>2025-11-08T23:51:29.000Z</time></trkpt>
        <trkpt lat="29.348293" lon="105.405843"><ele>569.1773</ele><time>2025-11-08T23:51:37.000Z</time></trkpt>
        <trkpt lat="29.34825" lon="105.405741"><ele>566.89557</ele><time>2025-11-08T23:51:53.000Z</time></trkpt>
        <trkpt lat="29.348283" lon="105.405324"><ele>566.39777</ele><time>2025-11-08T23:52:38.000Z</time></trkpt>
        <trkpt lat="29.348185" lon="105.405365"><ele>565.3826</ele><time>2025-11-08T23:53:06.000Z</time></trkpt>
        <trkpt lat="29.34797" lon="105.405419"><ele>566.70575</ele><time>2025-11-08T23:53:20.000Z</time></trkpt>
        <trkpt lat="29.347707" lon="105.405398"><ele>564.1197</ele><time>2025-11-08T23:53:35.000Z</time></trkpt>
        <trkpt lat="29.347525" lon="105.405608"><ele>565.3057</ele><time>2025-11-08T23:53:52.000Z</time></trkpt>
        <trkpt lat="29.347212" lon="105.40495"><ele>571.41876</ele><time>2025-11-08T23:54:34.000Z</time></trkpt>
        <trkpt lat="29.347147" lon="105.40488"><ele>568.8465</ele><time>2025-11-08T23:54:38.000Z</time></trkpt>
        <trkpt lat="29.347128" lon="105.404775"><ele>566.7823</ele><time>2025-11-08T23:54:44.000Z</time></trkpt>
        <trkpt lat="29.347068" lon="105.404697"><ele>566.4775</ele><time>2025-11-08T23:55:12.000Z</time></trkpt>
        <trkpt lat="29.34708" lon="105.404732"><ele>565.3348</ele><time>2025-11-08T23:55:23.000Z</time></trkpt>
        <trkpt lat="29.346968" lon="105.404755"><ele>568.25226</ele><time>2025-11-08T23:55:50.000Z</time></trkpt>
        <trkpt lat="29.34681" lon="105.404912"><ele>571.7662</ele><time>2025-11-08T23:56:13.000Z</time></trkpt>
        <trkpt lat="29.346708" lon="105.404739"><ele>570.70416</ele><time>2025-11-08T23:56:37.000Z</time></trkpt>
        <trkpt lat="29.346668" lon="105.404566"><ele>571.00214</ele><time>2025-11-08T23:56:44.000Z</time></trkpt>
        <trkpt lat="29.346486" lon="105.404433"><ele>569.3216</ele><time>2025-11-08T23:56:51.000Z</time></trkpt>
        <trkpt lat="29.346422" lon="105.404222"><ele>567.3691</ele><time>2025-11-08T23:56:58.000Z</time></trkpt>
        <trkpt lat="29.34636" lon="105.404113"><ele>566.295</ele><time>2025-11-08T23:57:20.000Z</time></trkpt>
        <trkpt lat="29.3462" lon="105.404119"><ele>569.5203</ele><time>2025-11-08T23:57:57.000Z</time></trkpt>
        <trkpt lat="29.346291" lon="105.404283"><ele>569.37994</ele><time>2025-11-08T23:58:31.000Z</time></trkpt>
        <trkpt lat="29.345432" lon="105.403268"><ele>551.02844</ele><time>2025-11-08T23:59:24.000Z</time></trkpt>
        <trkpt lat="29.345334" lon="105.403264"><ele>551.2623</ele><time>2025-11-08T23:59:31.000Z</time></trkpt>
        <trkpt lat="29.34533" lon="105.403146"><ele>549.0129</ele><time>2025-11-08T23:59:46.000Z</time></trkpt>
        <trkpt lat="29.345309" lon="105.40312"><ele>549.03406</ele><time>2025-11-08T23:59:47.000Z</time></trkpt>
        <trkpt lat="29.345258" lon="105.403027"><ele>554.7398</ele><time>2025-11-08T23:59:52.000Z</time></trkpt>
        <trkpt lat="29.345232" lon="105.402922"><ele>555.5011</ele><time>2025-11-09T00:00:03.000Z</time></trkpt>
        <trkpt lat="29.345135" lon="105.402871"><ele>552.4438</ele><time>2025-11-09T00:00:45.000Z</time></trkpt>
        <trkpt lat="29.344716" lon="105.402792"><ele>547.90137</ele><time>2025-11-09T00:02:10.000Z</time></trkpt>
        <trkpt lat="29.344722" lon="105.402803"><ele>542.129</ele><time>2025-11-09T00:02:12.000Z</time></trkpt>
        <trkpt lat="29.344859" lon="105.402912"><ele>545.18585</ele><time>2025-11-09T00:02:38.000Z</time></trkpt>
        <trkpt lat="29.344956" lon="105.402893"><ele>553.0845</ele><time>2025-11-09T00:02:49.000Z</time></trkpt>
        <trkpt lat="29.3451" lon="105.403279"><ele>544.6388</ele><time>2025-11-09T00:03:02.000Z</time></trkpt>
        <trkpt lat="29.345101" lon="105.403391"><ele>546.62665</ele><time>2025-11-09T00:03:10.000Z</time></trkpt>
        <trkpt lat="29.345155" lon="105.403493"><ele>543.12604</ele><time>2025-11-09T00:03:20.000Z</time></trkpt>
        <trkpt lat="29.345165" lon="105.403601"><ele>543.0312</ele><time>2025-11-09T00:03:37.000Z</time></trkpt>
        <trkpt lat="29.345127" lon="105.403711"><ele>539.01373</ele><time>2025-11-09T00:03:51.000Z</time></trkpt>
        <trkpt lat="29.345174" lon="105.4038"><ele>540.8671</ele><time>2025-11-09T00:04:01.000Z</time></trkpt>
        <trkpt lat="29.345137" lon="105.403898"><ele>538.4193</ele><time>2025-11-09T00:04:11.000Z</time></trkpt>
        <trkpt lat="29.345086" lon="105.403999"><ele>537.5971</ele><time>2025-11-09T00:04:18.000Z</time></trkpt>
        <trkpt lat="29.345079" lon="105.404112"><ele>538.1385</ele><time>2025-11-09T00:04:30.000Z</time></trkpt>
        <trkpt lat="29.345173" lon="105.404169"><ele>546.43805</ele><time>2025-11-09T00:04:44.000Z</time></trkpt>
        <trkpt lat="29.345129" lon="105.40427"><ele>537.52606</ele><time>2025-11-09T00:04:59.000Z</time></trkpt>
        <trkpt lat="29.345074" lon="105.404353"><ele>533.9673</ele><time>2025-11-09T00:05:06.000Z</time></trkpt>
        <trkpt lat="29.345093" lon="105.404463"><ele>539.50006</ele><time>2025-11-09T00:05:19.000Z</time></trkpt>
        <trkpt lat="29.345056" lon="105.404561"><ele>537.02527</ele><time>2025-11-09T00:05:28.000Z</time></trkpt>
        <trkpt lat="29.345141" lon="105.404621"><ele>544.457</ele><time>2025-11-09T00:05:38.000Z</time></trkpt>
        <trkpt lat="29.34515" lon="105.404731"><ele>542.6829</ele><time>2025-11-09T00:05:44.000Z</time></trkpt>
        <trkpt lat="29.345168" lon="105.404832"><ele>542.92365</ele><time>2025-11-09T00:05:52.000Z</time></trkpt>
        <trkpt lat="29.34518" lon="105.404935"><ele>538.18353</ele><time>2025-11-09T00:06:01.000Z</time></trkpt>
        <trkpt lat="29.345206" lon="105.405037"><ele>546.3629</ele><time>2025-11-09T00:06:08.000Z</time></trkpt>
        <trkpt lat="29.3452" lon="105.405147"><ele>540.6644</ele><time>2025-11-09T00:06:13.000Z</time></trkpt>
        <trkpt lat="29.345256" lon="105.405245"><ele>539.1559</ele><time>2025-11-09T00:06:18.000Z</time></trkpt>
        <trkpt lat="29.345323" lon="105.405315"><ele>528.16266</ele><time>2025-11-09T00:06:26.000Z</time></trkpt>
        <trkpt lat="29.345379" lon="105.405414"><ele>545.424</ele><time>2025-11-09T00:06:44.000Z</time></trkpt>
        <trkpt lat="29.345448" lon="105.405522"><ele>534.85626</ele><time>2025-11-09T00:06:56.000Z</time></trkpt>
        <trkpt lat="29.345401" lon="105.405612"><ele>547.22095</ele><time>2025-11-09T00:07:12.000Z</time></trkpt>
        <trkpt lat="29.345364" lon="105.405287"><ele>545.75946</ele><time>2025-11-09T00:07:18.000Z</time></trkpt>
        <trkpt lat="29.345373" lon="105.40548"><ele>538.15936</ele><time>2025-11-09T00:07:52.000Z</time></trkpt>
        <trkpt lat="29.345467" lon="105.405455"><ele>537.6475</ele><time>2025-11-09T00:08:06.000Z</time></trkpt>
        <trkpt lat="29.345634" lon="105.405619"><ele>525.77</ele><time>2025-11-09T00:09:27.000Z</time></trkpt>
        <trkpt lat="29.345723" lon="105.405739"><ele>535.2559</ele><time>2025-11-09T00:09:33.000Z</time></trkpt>
        <trkpt lat="29.345709" lon="105.405994"><ele>495.3857</ele><time>2025-11-09T00:09:48.000Z</time></trkpt>
        <trkpt lat="29.345632" lon="105.405938"><ele>494.5311</ele><time>2025-11-09T00:09:57.000Z</time></trkpt>
        <trkpt lat="29.345523" lon="105.405996"><ele>490.37045</ele><time>2025-11-09T00:10:08.000Z</time></trkpt>
        <trkpt lat="29.345427" lon="105.40588"><ele>485.1462</ele><time>2025-11-09T00:10:18.000Z</time></trkpt>
        <trkpt lat="29.345019" lon="105.40598"><ele>479.81516</ele><time>2025-11-09T00:11:27.000Z</time></trkpt>
        <trkpt lat="29.344684" lon="105.406149"><ele>455.40665</ele><time>2025-11-09T00:12:29.000Z</time></trkpt>
        <trkpt lat="29.344699" lon="105.406255"><ele>448.3436</ele><time>2025-11-09T00:12:39.000Z</time></trkpt>
        <trkpt lat="29.34489" lon="105.406512"><ele>443.91574</ele><time>2025-11-09T00:12:44.000Z</time></trkpt>
        <trkpt lat="29.344835" lon="105.406425"><ele>443.978</ele><time>2025-11-09T00:13:00.000Z</time></trkpt>
        <trkpt lat="29.344764" lon="105.406134"><ele>444.0205</ele><time>2025-11-09T00:13:55.000Z</time></trkpt>
        <trkpt lat="29.34467" lon="105.405716"><ele>444.12622</ele><time>2025-11-09T00:14:07.000Z</time></trkpt>
        <trkpt lat="29.344353" lon="105.405415"><ele>467.5467</ele><time>2025-11-09T00:15:02.000Z</time></trkpt>
        <trkpt lat="29.342683" lon="105.405"><ele>425.9506</ele><time>2025-11-09T00:17:28.000Z</time></trkpt>
        <trkpt lat="29.342592" lon="105.40503"><ele>426.2749</ele><time>2025-11-09T00:17:45.000Z</time></trkpt>
        <trkpt lat="29.342654" lon="105.404956"><ele>425.9105</ele><time>2025-11-09T00:17:53.000Z</time></trkpt>
        <trkpt lat="29.342583" lon="105.404877"><ele>424.3186</ele><time>2025-11-09T00:18:07.000Z</time></trkpt>
        <trkpt lat="29.342501" lon="105.40481"><ele>424.85916</ele><time>2025-11-09T00:18:11.000Z</time></trkpt>
        <trkpt lat="29.342328" lon="105.404657"><ele>422.4711</ele><time>2025-11-09T00:18:23.000Z</time></trkpt>
        <trkpt lat="29.342389" lon="105.40462"><ele>419.82773</ele><time>2025-11-09T00:18:33.000Z</time></trkpt>
        <trkpt lat="29.342508" lon="105.404658"><ele>420.4332</ele><time>2025-11-09T00:18:53.000Z</time></trkpt>
        <trkpt lat="29.342742" lon="105.404657"><ele>421.9189</ele><time>2025-11-09T00:19:42.000Z</time></trkpt>
        <trkpt lat="29.342327" lon="105.404698"><ele>432.2653</ele><time>2025-11-09T00:21:11.000Z</time></trkpt>
        <trkpt lat="29.342428" lon="105.404702"><ele>421.0471</ele><time>2025-11-09T00:22:07.000Z</time></trkpt>
        <trkpt lat="29.342557" lon="105.404605"><ele>418.5217</ele><time>2025-11-09T00:22:35.000Z</time></trkpt>
        <trkpt lat="29.342696" lon="105.404372"><ele>413.4492</ele><time>2025-11-09T00:22:50.000Z</time></trkpt>
        <trkpt lat="29.342654" lon="105.404273"><ele>412.19626</ele><time>2025-11-09T00:23:02.000Z</time></trkpt>
        <trkpt lat="29.342781" lon="105.404113"><ele>412.348</ele><time>2025-11-09T00:23:27.000Z</time></trkpt>
        <trkpt lat="29.342689" lon="105.40414"><ele>410.64853</ele><time>2025-11-09T00:23:36.000Z</time></trkpt>
        <trkpt lat="29.342577" lon="105.404128"><ele>411.52292</ele><time>2025-11-09T00:23:41.000Z</time></trkpt>
        <trkpt lat="29.342557" lon="105.404241"><ele>411.6342</ele><time>2025-11-09T00:23:54.000Z</time></trkpt>
        <trkpt lat="29.342491" lon="105.404312"><ele>414.05887</ele><time>2025-11-09T00:24:09.000Z</time></trkpt>
        <trkpt lat="29.342616" lon="105.40407"><ele>411.42282</ele><time>2025-11-09T00:24:48.000Z</time></trkpt>
        <trkpt lat="29.342651" lon="105.403868"><ele>412.19443</ele><time>2025-11-09T00:25:13.000Z</time></trkpt>
        <trkpt lat="29.34261" lon="105.403753"><ele>414.34482</ele><time>2025-11-09T00:25:23.000Z</time></trkpt>
        <trkpt lat="29.342585" lon="105.403646"><ele>416.93253</ele><time>2025-11-09T00:25:32.000Z</time></trkpt>
        <trkpt lat="29.342647" lon="105.403161"><ele>424.56247</ele><time>2025-11-09T00:26:23.000Z</time></trkpt>
        <trkpt lat="29.342585" lon="105.403244"><ele>422.3762</ele><time>2025-11-09T00:26:30.000Z</time></trkpt>
        <trkpt lat="29.342492" lon="105.403226"><ele>421.34457</ele><time>2025-11-09T00:26:37.000Z</time></trkpt>
        <trkpt lat="29.342203" lon="105.403131"><ele>418.21805</ele><time>2025-11-09T00:29:00.000Z</time></trkpt>
        <trkpt lat="29.341734" lon="105.40261"><ele>419.29562</ele><time>2025-11-09T00:31:32.000Z</time></trkpt>
        <trkpt lat="29.341645" lon="105.402671"><ele>417.9941</ele><time>2025-11-09T00:31:40.000Z</time></trkpt>
        <trkpt lat="29.341583" lon="105.402975"><ele>411.7441</ele><time>2025-11-09T00:32:51.000Z</time></trkpt>
        <trkpt lat="29.341472" lon="105.40266"><ele>406.7623</ele><time>2025-11-09T00:33:00.000Z</time></trkpt>
        <trkpt lat="29.3414" lon="105.402555"><ele>407.24228</ele><time>2025-11-09T00:33:24.000Z</time></trkpt>
        <trkpt lat="29.341359" lon="105.402454"><ele>405.03384</ele><time>2025-11-09T00:33:32.000Z</time></trkpt>
        <trkpt lat="29.341323" lon="105.402353"><ele>406.52267</ele><time>2025-11-09T00:33:39.000Z</time></trkpt>
        <trkpt lat="29.341285" lon="105.402249"><ele>408.78036</ele><time>2025-11-09T00:33:48.000Z</time></trkpt>
        <trkpt lat="29.34103" lon="105.402253"><ele>403.86575</ele><time>2025-11-09T00:33:55.000Z</time></trkpt>
        <trkpt lat="29.340961" lon="105.402152"><ele>404.2325</ele><time>2025-11-09T00:34:14.000Z</time></trkpt>
        <trkpt lat="29.340959" lon="105.402045"><ele>405.5073</ele><time>2025-11-09T00:34:33.000Z</time></trkpt>
        <trkpt lat="29.340732" lon="105.401628"><ele>406.87363</ele><time>2025-11-09T00:35:15.000Z</time></trkpt>
        <trkpt lat="29.340787" lon="105.401303"><ele>411.71588</ele><time>2025-11-09T00:35:43.000Z</time></trkpt>
        <trkpt lat="29.339542" lon="105.400288"><ele>397.97336</ele><time>2025-11-09T00:38:35.000Z</time></trkpt>
        <trkpt lat="29.339502" lon="105.400193"><ele>398.4354</ele><time>2025-11-09T00:38:48.000Z</time></trkpt>
        <trkpt lat="29.339545" lon="105.400086"><ele>399.4841</ele><time>2025-11-09T00:38:51.000Z</time></trkpt>
        <trkpt lat="29.339588" lon="105.399995"><ele>400.32736</ele><time>2025-11-09T00:39:04.000Z</time></trkpt>
        <trkpt lat="29.339667" lon="105.399934"><ele>401.5864</ele><time>2025-11-09T00:39:09.000Z</time></trkpt>
        <trkpt lat="29.339683" lon="105.399828"><ele>404.27975</ele><time>2025-11-09T00:39:21.000Z</time></trkpt>
        <trkpt lat="29.33843" lon="105.399661"><ele>396.059</ele><time>2025-11-09T00:40:50.000Z</time></trkpt>
        <trkpt lat="29.337868" lon="105.399446"><ele>395.75943</ele><time>2025-11-09T00:42:15.000Z</time></trkpt>
        <trkpt lat="29.338038" lon="105.399336"><ele>398.00436</ele><time>2025-11-09T00:42:19.000Z</time></trkpt>
        <trkpt lat="29.338138" lon="105.399264"><ele>395.46307</ele><time>2025-11-09T00:42:22.000Z</time></trkpt>
        <trkpt lat="29.338213" lon="105.3992"><ele>395.99844</ele><time>2025-11-09T00:42:26.000Z</time></trkpt>
        <trkpt lat="29.33726" lon="105.398805"><ele>395.60104</ele><time>2025-11-09T00:45:19.000Z</time></trkpt>
        <trkpt lat="29.337262" lon="105.398805"><ele>395.38083</ele><time>2025-11-09T00:45:20.000Z</time></trkpt>
        <trkpt lat="29.33721" lon="105.398715"><ele>399.4941</ele><time>2025-11-09T00:46:07.000Z</time></trkpt>
        <trkpt lat="29.337121" lon="105.398675"><ele>403.46652</ele><time>2025-11-09T00:46:15.000Z</time></trkpt>
        <trkpt lat="29.337026" lon="105.398087"><ele>416.45535</ele><time>2025-11-09T00:46:47.000Z</time></trkpt>
        <trkpt lat="29.33719" lon="105.397939"><ele>404.6871</ele><time>2025-11-09T00:46:56.000Z</time></trkpt>
        <trkpt lat="29.337015" lon="105.398034"><ele>400.46017</ele><time>2025-11-09T00:47:07.000Z</time></trkpt>
        <trkpt lat="29.336779" lon="105.397949"><ele>399.4504</ele><time>2025-11-09T00:47:32.000Z</time></trkpt>
        <trkpt lat="29.336548" lon="105.39768"><ele>425.14743</ele><time>2025-11-09T00:48:31.000Z</time></trkpt>
        <trkpt lat="29.33647" lon="105.397358"><ele>404.81296</ele><time>2025-11-09T00:49:24.000Z</time></trkpt>
        <trkpt lat="29.336366" lon="105.397374"><ele>387.4839</ele><time>2025-11-09T00:51:04.000Z</time></trkpt>
        <trkpt lat="29.336051" lon="105.39727"><ele>380.60483</ele><time>2025-11-09T00:54:35.000Z</time></trkpt>
        <trkpt lat="29.334851" lon="105.396983"><ele>392.52676</ele><time>2025-11-09T00:56:29.000Z</time></trkpt>
        <trkpt lat="29.334763" lon="105.397033"><ele>393.2704</ele><time>2025-11-09T00:56:32.000Z</time></trkpt>
        <trkpt lat="29.334691" lon="105.397067"><ele>395.3091</ele><time>2025-11-09T00:56:40.000Z</time></trkpt>
        <trkpt lat="29.334566" lon="105.397029"><ele>399.73898</ele><time>2025-11-09T00:56:47.000Z</time></trkpt>
        <trkpt lat="29.334498" lon="105.397122"><ele>401.84518</ele><time>2025-11-09T00:57:06.000Z</time></trkpt>
        <trkpt lat="29.334369" lon="105.397282"><ele>405.57892</ele><time>2025-11-09T00:57:21.000Z</time></trkpt>
        <trkpt lat="29.334334" lon="105.397377"><ele>405.5232</ele><time>2025-11-09T00:57:28.000Z</time></trkpt>
        <trkpt lat="29.333961" lon="105.396598"><ele>405.81595</ele><time>2025-11-09T00:57:55.000Z</time></trkpt>
        <trkpt lat="29.333862" lon="105.396636"><ele>405.95978</ele><time>2025-11-09T00:57:56.000Z</time></trkpt>
        <trkpt lat="29.333781" lon="105.396686"><ele>406.79877</ele><time>2025-11-09T00:58:03.000Z</time></trkpt>
        <trkpt lat="29.333777" lon="105.396677"><ele>407.69577</ele><time>2025-11-09T00:58:04.000Z</time></trkpt>
        <trkpt lat="29.333726" lon="105.396568"><ele>408.34885</ele><time>2025-11-09T00:58:08.000Z</time></trkpt>
        <trkpt lat="29.33278" lon="105.39286"><ele>386.5421</ele><time>2025-11-09T01:00:45.000Z</time></trkpt>
        <trkpt lat="29.332676" lon="105.392813"><ele>386.40536</ele><time>2025-11-09T01:00:54.000Z</time></trkpt>
        <trkpt lat="29.332892" lon="105.392893"><ele>386.2509</ele><time>2025-11-09T01:01:01.000Z</time></trkpt>
        <trkpt lat="29.332778" lon="105.39284"><ele>386.08588</ele><time>2025-11-09T01:01:05.000Z</time></trkpt>
        <trkpt lat="29.332359" lon="105.392737"><ele>385.90085</ele><time>2025-11-09T01:01:12.000Z</time></trkpt>
        <trkpt lat="29.332269" lon="105.392726"><ele>385.69836</ele><time>2025-11-09T01:01:19.000Z</time></trkpt>
        <trkpt lat="29.332087" lon="105.392669"><ele>385.66592</ele><time>2025-11-09T01:01:30.000Z</time></trkpt>
        <trkpt lat="29.331992" lon="105.392617"><ele>385.63058</ele><time>2025-11-09T01:01:37.000Z</time></trkpt>
        <trkpt lat="29.331941" lon="105.392528"><ele>385.51306</ele><time>2025-11-09T01:01:53.000Z</time></trkpt>
        <trkpt lat="29.332036" lon="105.392513"><ele>385.27368</ele><time>2025-11-09T01:02:22.000Z</time></trkpt>
        <trkpt lat="29.331963" lon="105.392542"><ele>385.72552</ele><time>2025-11-09T01:02:54.000Z</time></trkpt>
        <trkpt lat="29.331737" lon="105.392581"><ele>386.3252</ele><time>2025-11-09T01:03:04.000Z</time></trkpt>
        <trkpt lat="29.331386" lon="105.392706"><ele>391.20718</ele><time>2025-11-09T01:03:30.000Z</time></trkpt>
        <trkpt lat="29.331045" lon="105.391561"><ele>372.05057</ele><time>2025-11-09T01:04:16.000Z</time></trkpt>
        <trkpt lat="29.330948" lon="105.391571"><ele>370.8363</ele><time>2025-11-09T01:04:23.000Z</time></trkpt>
        <trkpt lat="29.330763" lon="105.391516"><ele>371.07565</ele><time>2025-11-09T01:04:28.000Z</time></trkpt>
        <trkpt lat="29.330691" lon="105.39145"><ele>371.16043</ele><time>2025-11-09T01:04:32.000Z</time></trkpt>
        <trkpt lat="29.330322" lon="105.39055"><ele>371.19727</ele><time>2025-11-09T01:04:51.000Z</time></trkpt>
        <trkpt lat="29.330407" lon="105.390761"><ele>371.20184</ele><time>2025-11-09T01:05:01.000Z</time></trkpt>
        <trkpt lat="29.330032" lon="105.389873"><ele>365.4946</ele><time>2025-11-09T01:08:27.000Z</time></trkpt>
        <trkpt lat="29.330032" lon="105.38987"><ele>365.6976</ele><time>2025-11-09T01:08:28.000Z</time></trkpt>
        <trkpt lat="29.330035" lon="105.389858"><ele>366.02133</ele><time>2025-11-09T01:08:31.000Z</time></trkpt>
        <trkpt lat="29.330031" lon="105.389857"><ele>370.16006</ele><time>2025-11-09T01:09:05.000Z</time></trkpt>
        <trkpt lat="29.330127" lon="105.389876"><ele>366.85934</ele><time>2025-11-09T01:09:18.000Z</time></trkpt>
        <trkpt lat="29.330202" lon="105.389904"><ele>367.4307</ele><time>2025-11-09T01:09:26.000Z</time></trkpt>
        <trkpt lat="29.330351" lon="105.38993"><ele>361.4448</ele><time>2025-11-09T01:09:50.000Z</time></trkpt>
        <trkpt lat="29.330463" lon="105.389492"><ele>370.8264</ele><time>2025-11-09T01:10:45.000Z</time></trkpt>
        <trkpt lat="29.330476" lon="105.388996"><ele>370.27487</ele><time>2025-11-09T01:11:49.000Z</time></trkpt>
        <trkpt lat="29.330743" lon="105.389453"><ele>376.87558</ele><time>2025-11-09T01:12:26.000Z</time></trkpt>
        <trkpt lat="29.330823" lon="105.38938"><ele>375.68784</ele><time>2025-11-09T01:12:29.000Z</time></trkpt>
        <trkpt lat="29.330872" lon="105.389281"><ele>378.1934</ele><time>2025-11-09T01:12:34.000Z</time></trkpt>
        <trkpt lat="29.331218" lon="105.38915"><ele>380.39847</ele><time>2025-11-09T01:12:38.000Z</time></trkpt>
        <trkpt lat="29.331133" lon="105.389117"><ele>389.60648</ele><time>2025-11-09T01:12:47.000Z</time></trkpt>
        <trkpt lat="29.331053" lon="105.389059"><ele>388.38138</ele><time>2025-11-09T01:13:22.000Z</time></trkpt>
        <trkpt lat="29.330964" lon="105.389025"><ele>385.98038</ele><time>2025-11-09T01:13:40.000Z</time></trkpt>
        <trkpt lat="29.330103" lon="105.388325"><ele>368.57053</ele><time>2025-11-09T01:15:07.000Z</time></trkpt>
        <trkpt lat="29.330192" lon="105.388292"><ele>372.14255</ele><time>2025-11-09T01:15:15.000Z</time></trkpt>
        <trkpt lat="29.330231" lon="105.388394"><ele>372.7618</ele><time>2025-11-09T01:15:55.000Z</time></trkpt>
        <trkpt lat="29.329669" lon="105.387151"><ele>369.77716</ele><time>2025-11-09T01:16:25.000Z</time></trkpt>
        <trkpt lat="29.329386" lon="105.386378"><ele>369.5336</ele><time>2025-11-09T01:16:40.000Z</time></trkpt>
        <trkpt lat="29.329499" lon="105.386585"><ele>369.29214</ele><time>2025-11-09T01:16:44.000Z</time></trkpt>
        <trkpt lat="29.328758" lon="105.383583"><ele>373.59802</ele><time>2025-11-09T01:19:12.000Z</time></trkpt>
        <trkpt lat="29.328853" lon="105.384141"><ele>373.14444</ele><time>2025-11-09T01:19:19.000Z</time></trkpt>
        <trkpt lat="29.328897" lon="105.384836"><ele>370.1584</ele><time>2025-11-09T01:19:28.000Z</time></trkpt>
        <trkpt lat="29.32898" lon="105.384785"><ele>365.26315</ele><time>2025-11-09T01:19:35.000Z</time></trkpt>
        <trkpt lat="29.328917" lon="105.38466"><ele>364.36942</ele><time>2025-11-09T01:19:59.000Z</time></trkpt>
        <trkpt lat="29.328978" lon="105.384783"><ele>369.78647</ele><time>2025-11-09T01:20:59.000Z</time></trkpt>
        <trkpt lat="29.328853" lon="105.38469"><ele>366.98108</ele><time>2025-11-09T01:21:30.000Z</time></trkpt>
        <trkpt lat="29.328777" lon="105.384631"><ele>365.85757</ele><time>2025-11-09T01:21:46.000Z</time></trkpt>
        <trkpt lat="29.328868" lon="105.384699"><ele>365.41006</ele><time>2025-11-09T01:22:11.000Z</time></trkpt>
        <trkpt lat="29.331133" lon="105.382482"><ele>377.79416</ele><time>2025-11-09T01:35:35.000Z</time></trkpt>
        <trkpt lat="29.330833" lon="105.382735"><ele>376.84763</ele><time>2025-11-09T01:35:36.000Z</time></trkpt>
        <trkpt lat="29.331739" lon="105.382089"><ele>376.84763</ele><time>2025-11-09T01:35:46.000Z</time></trkpt>
        <trkpt lat="29.331905" lon="105.38197"><ele>376.84763</ele><time>2025-11-09T01:35:48.000Z</time></trkpt>
        <trkpt lat="29.330451" lon="105.382976"><ele>371.0653</ele><time>2025-11-09T01:35:52.000Z</time></trkpt>
        <trkpt lat="29.330535" lon="105.382908"><ele>365.99982</ele><time>2025-11-09T01:36:05.000Z</time></trkpt>
        <trkpt lat="29.330708" lon="105.382767"><ele>365.45926</ele><time>2025-11-09T01:36:32.000Z</time></trkpt>
        <trkpt lat="29.33088" lon="105.382862"><ele>481.9822</ele><time>2025-11-09T01:37:42.000Z</time></trkpt>
        <trkpt lat="29.331255" lon="105.382684"><ele>496.75577</ele><time>2025-11-09T01:39:46.000Z</time></trkpt>
        <trkpt lat="29.331244" lon="105.382635"><ele>493.65823</ele><time>2025-11-09T01:39:58.000Z</time></trkpt>
        <trkpt lat="29.331321" lon="105.382563"><ele>493.6072</ele><time>2025-11-09T01:40:02.000Z</time></trkpt>
      </trkseg>
  </trk>
</gpx>